<?xml version="1.0" encoding="UTF-8" standalone="no" ?>
<gpx xmlns="http://www.topografix.com/GPX/1/1" xmlns:xsi="http://www.w3.org/2001/XMLSchema-instance" xsi:schemaLocation="http://www.topografix.com/GPX/1/1 http://www.topografix.com/GPX/1/1/gpx.xsd" version="1.1" creator="VisuGPX - https://www.visugpx.com">
  <metadata>
    <name>VTT Gruissan de JPR Noir 46km D+1050</name>
    <desc><![CDATA[Trace de JPR classée Noir dans le massif de la Clape ]]></desc>
  </metadata>
  <trk>
    <name><![CDATA[Les spots enduros de la Clape - 6247 - UtagawaVTT.com]]></name>
    <trkseg>
      <trkpt lat="43.11456" lon="3.0936">
        <ele>7</ele>
        <time>2011-12-04T08:04:05Z</time>
      </trkpt>
      <trkpt lat="43.11466" lon="3.09372">
        <ele>7</ele>
        <time>2011-12-04T08:06:43Z</time>
      </trkpt>
      <trkpt lat="43.11473" lon="3.09384">
        <ele>7</ele>
        <time>2011-12-04T08:06:58Z</time>
      </trkpt>
      <trkpt lat="43.11458" lon="3.09319">
        <ele>7</ele>
        <time>2011-12-04T08:07:23Z</time>
      </trkpt>
      <trkpt lat="43.11491" lon="3.09284">
        <ele>7</ele>
        <time>2011-12-04T08:07:39Z</time>
      </trkpt>
      <trkpt lat="43.11611" lon="3.09311">
        <ele>7</ele>
        <time>2011-12-04T08:08:11Z</time>
      </trkpt>
      <trkpt lat="43.11726" lon="3.09365">
        <ele>9</ele>
        <time>2011-12-04T08:08:43Z</time>
      </trkpt>
      <trkpt lat="43.11848" lon="3.09402">
        <ele>12</ele>
        <time>2011-12-04T08:09:17Z</time>
      </trkpt>
      <trkpt lat="43.11968" lon="3.0944">
        <ele>14</ele>
        <time>2011-12-04T08:09:53Z</time>
      </trkpt>
      <trkpt lat="43.12035" lon="3.09468">
        <ele>14</ele>
        <time>2011-12-04T08:10:15Z</time>
      </trkpt>
      <trkpt lat="43.12141" lon="3.09483">
        <ele>16</ele>
        <time>2011-12-04T08:10:46Z</time>
      </trkpt>
      <trkpt lat="43.12222" lon="3.09521">
        <ele>19</ele>
        <time>2011-12-04T08:11:10Z</time>
      </trkpt>
      <trkpt lat="43.12304" lon="3.09537">
        <ele>20</ele>
        <time>2011-12-04T08:11:34Z</time>
      </trkpt>
      <trkpt lat="43.12415" lon="3.09532">
        <ele>23</ele>
        <time>2011-12-04T08:12:08Z</time>
      </trkpt>
      <trkpt lat="43.12496" lon="3.09465">
        <ele>25</ele>
        <time>2011-12-04T08:12:38Z</time>
      </trkpt>
      <trkpt lat="43.12543" lon="3.09308">
        <ele>26</ele>
        <time>2011-12-04T08:13:10Z</time>
      </trkpt>
      <trkpt lat="43.12566" lon="3.09176">
        <ele>27</ele>
        <time>2011-12-04T08:13:39Z</time>
      </trkpt>
      <trkpt lat="43.12582" lon="3.09059">
        <ele>32</ele>
        <time>2011-12-04T08:14:07Z</time>
      </trkpt>
      <trkpt lat="43.12557" lon="3.08995">
        <ele>36</ele>
        <time>2011-12-04T08:14:31Z</time>
      </trkpt>
      <trkpt lat="43.12546" lon="3.0893">
        <ele>42</ele>
        <time>2011-12-04T08:14:58Z</time>
      </trkpt>
      <trkpt lat="43.12538" lon="3.08867">
        <ele>49</ele>
        <time>2011-12-04T08:15:27Z</time>
      </trkpt>
      <trkpt lat="43.12503" lon="3.08831">
        <ele>53</ele>
        <time>2011-12-04T08:15:53Z</time>
      </trkpt>
      <trkpt lat="43.12498" lon="3.08753">
        <ele>57</ele>
        <time>2011-12-04T08:16:20Z</time>
      </trkpt>
      <trkpt lat="43.12475" lon="3.08661">
        <ele>56</ele>
        <time>2011-12-04T08:16:40Z</time>
      </trkpt>
      <trkpt lat="43.12411" lon="3.08644">
        <ele>55</ele>
        <time>2011-12-04T08:17:01Z</time>
      </trkpt>
      <trkpt lat="43.12338" lon="3.08655">
        <ele>58</ele>
        <time>2011-12-04T08:17:27Z</time>
      </trkpt>
      <trkpt lat="43.12323" lon="3.08738">
        <ele>61</ele>
        <time>2011-12-04T08:17:51Z</time>
      </trkpt>
      <trkpt lat="43.12339" lon="3.08831">
        <ele>65</ele>
        <time>2011-12-04T08:18:19Z</time>
      </trkpt>
      <trkpt lat="43.12332" lon="3.08895">
        <ele>71</ele>
        <time>2011-12-04T08:18:44Z</time>
      </trkpt>
      <trkpt lat="43.12293" lon="3.08899">
        <ele>70</ele>
        <time>2011-12-04T08:19:40Z</time>
      </trkpt>
      <trkpt lat="43.12253" lon="3.08898">
        <ele>65</ele>
        <time>2011-12-04T08:19:52Z</time>
      </trkpt>
      <trkpt lat="43.12282" lon="3.08941">
        <ele>62</ele>
        <time>2011-12-04T08:20:06Z</time>
      </trkpt>
      <trkpt lat="43.12267" lon="3.08968">
        <ele>57</ele>
        <time>2011-12-04T08:20:36Z</time>
      </trkpt>
      <trkpt lat="43.1226" lon="3.08991">
        <ele>51</ele>
        <time>2011-12-04T08:21:03Z</time>
      </trkpt>
      <trkpt lat="43.12255" lon="3.08992">
        <ele>55</ele>
        <time>2011-12-04T08:22:31Z</time>
      </trkpt>
      <trkpt lat="43.12222" lon="3.09014">
        <ele>45</ele>
        <time>2011-12-04T08:23:08Z</time>
      </trkpt>
      <trkpt lat="43.12198" lon="3.09067">
        <ele>40</ele>
        <time>2011-12-04T08:23:21Z</time>
      </trkpt>
      <trkpt lat="43.12184" lon="3.09069">
        <ele>36</ele>
        <time>2011-12-04T08:24:10Z</time>
      </trkpt>
      <trkpt lat="43.12186" lon="3.0913">
        <ele>33</ele>
        <time>2011-12-04T08:24:29Z</time>
      </trkpt>
      <trkpt lat="43.12204" lon="3.0915">
        <ele>31</ele>
        <time>2011-12-04T08:24:44Z</time>
      </trkpt>
      <trkpt lat="43.12179" lon="3.09196">
        <ele>28</ele>
        <time>2011-12-04T08:24:54Z</time>
      </trkpt>
      <trkpt lat="43.12136" lon="3.09218">
        <ele>25</ele>
        <time>2011-12-04T08:25:05Z</time>
      </trkpt>
      <trkpt lat="43.12143" lon="3.09288">
        <ele>20</ele>
        <time>2011-12-04T08:25:20Z</time>
      </trkpt>
      <trkpt lat="43.12132" lon="3.09345">
        <ele>20</ele>
        <time>2011-12-04T08:25:30Z</time>
      </trkpt>
      <trkpt lat="43.12068" lon="3.09364">
        <ele>16</ele>
        <time>2011-12-04T08:25:41Z</time>
      </trkpt>
      <trkpt lat="43.1209" lon="3.09344">
        <ele>15</ele>
        <time>2011-12-04T08:26:00Z</time>
      </trkpt>
      <trkpt lat="43.1213" lon="3.09363">
        <ele>15</ele>
        <time>2011-12-04T08:26:53Z</time>
      </trkpt>
      <trkpt lat="43.12207" lon="3.09361">
        <ele>17</ele>
        <time>2011-12-04T08:27:21Z</time>
      </trkpt>
      <trkpt lat="43.12285" lon="3.09402">
        <ele>19</ele>
        <time>2011-12-04T08:27:51Z</time>
      </trkpt>
      <trkpt lat="43.12376" lon="3.09403">
        <ele>21</ele>
        <time>2011-12-04T08:28:19Z</time>
      </trkpt>
      <trkpt lat="43.1248" lon="3.09379">
        <ele>23</ele>
        <time>2011-12-04T08:28:49Z</time>
      </trkpt>
      <trkpt lat="43.12535" lon="3.09323">
        <ele>26</ele>
        <time>2011-12-04T08:29:14Z</time>
      </trkpt>
      <trkpt lat="43.12589" lon="3.09241">
        <ele>26</ele>
        <time>2011-12-04T08:29:42Z</time>
      </trkpt>
      <trkpt lat="43.12634" lon="3.09267">
        <ele>27</ele>
        <time>2011-12-04T08:30:00Z</time>
      </trkpt>
      <trkpt lat="43.12657" lon="3.09302">
        <ele>30</ele>
        <time>2011-12-04T08:30:15Z</time>
      </trkpt>
      <trkpt lat="43.12651" lon="3.09361">
        <ele>31</ele>
        <time>2011-12-04T08:30:28Z</time>
      </trkpt>
      <trkpt lat="43.12673" lon="3.09379">
        <ele>34</ele>
        <time>2011-12-04T08:30:42Z</time>
      </trkpt>
      <trkpt lat="43.12687" lon="3.09303">
        <ele>39</ele>
        <time>2011-12-04T08:31:06Z</time>
      </trkpt>
      <trkpt lat="43.12701" lon="3.09267">
        <ele>40</ele>
        <time>2011-12-04T08:31:21Z</time>
      </trkpt>
      <trkpt lat="43.12728" lon="3.09212">
        <ele>42</ele>
        <time>2011-12-04T08:31:39Z</time>
      </trkpt>
      <trkpt lat="43.12748" lon="3.09172">
        <ele>44</ele>
        <time>2011-12-04T08:31:56Z</time>
      </trkpt>
      <trkpt lat="43.12776" lon="3.09125">
        <ele>45</ele>
        <time>2011-12-04T08:32:12Z</time>
      </trkpt>
      <trkpt lat="43.12796" lon="3.0907">
        <ele>47</ele>
        <time>2011-12-04T08:32:27Z</time>
      </trkpt>
      <trkpt lat="43.12831" lon="3.09017">
        <ele>42</ele>
        <time>2011-12-04T08:32:39Z</time>
      </trkpt>
      <trkpt lat="43.12881" lon="3.0896">
        <ele>43</ele>
        <time>2011-12-04T08:32:59Z</time>
      </trkpt>
      <trkpt lat="43.1292" lon="3.08911">
        <ele>41</ele>
        <time>2011-12-04T08:33:11Z</time>
      </trkpt>
      <trkpt lat="43.12943" lon="3.08903">
        <ele>37</ele>
        <time>2011-12-04T08:34:05Z</time>
      </trkpt>
      <trkpt lat="43.12973" lon="3.08906">
        <ele>38</ele>
        <time>2011-12-04T08:34:20Z</time>
      </trkpt>
      <trkpt lat="43.13013" lon="3.08924">
        <ele>39</ele>
        <time>2011-12-04T08:34:36Z</time>
      </trkpt>
      <trkpt lat="43.13035" lon="3.08938">
        <ele>37</ele>
        <time>2011-12-04T08:37:11Z</time>
      </trkpt>
      <trkpt lat="43.13079" lon="3.08968">
        <ele>39</ele>
        <time>2011-12-04T08:37:30Z</time>
      </trkpt>
      <trkpt lat="43.13133" lon="3.08924">
        <ele>42</ele>
        <time>2011-12-04T08:37:52Z</time>
      </trkpt>
      <trkpt lat="43.1316" lon="3.08948">
        <ele>43</ele>
        <time>2011-12-04T08:38:03Z</time>
      </trkpt>
      <trkpt lat="43.13174" lon="3.09001">
        <ele>44</ele>
        <time>2011-12-04T08:38:20Z</time>
      </trkpt>
      <trkpt lat="43.13179" lon="3.09018">
        <ele>44</ele>
        <time>2011-12-04T08:38:40Z</time>
      </trkpt>
      <trkpt lat="43.13198" lon="3.09057">
        <ele>45</ele>
        <time>2011-12-04T08:38:55Z</time>
      </trkpt>
      <trkpt lat="43.13213" lon="3.09066">
        <ele>48</ele>
        <time>2011-12-04T08:39:15Z</time>
      </trkpt>
      <trkpt lat="43.13249" lon="3.09057">
        <ele>54</ele>
        <time>2011-12-04T08:39:55Z</time>
      </trkpt>
      <trkpt lat="43.1327" lon="3.09071">
        <ele>57</ele>
        <time>2011-12-04T08:40:12Z</time>
      </trkpt>
      <trkpt lat="43.13279" lon="3.09059">
        <ele>56</ele>
        <time>2011-12-04T08:42:09Z</time>
      </trkpt>
      <trkpt lat="43.1329" lon="3.09026">
        <ele>58</ele>
        <time>2011-12-04T08:42:49Z</time>
      </trkpt>
      <trkpt lat="43.13338" lon="3.09012">
        <ele>61</ele>
        <time>2011-12-04T08:43:11Z</time>
      </trkpt>
      <trkpt lat="43.13375" lon="3.09036">
        <ele>66</ele>
        <time>2011-12-04T08:43:36Z</time>
      </trkpt>
      <trkpt lat="43.13377" lon="3.09087">
        <ele>69</ele>
        <time>2011-12-04T08:43:57Z</time>
      </trkpt>
      <trkpt lat="43.13382" lon="3.09151">
        <ele>74</ele>
        <time>2011-12-04T08:44:23Z</time>
      </trkpt>
      <trkpt lat="43.13357" lon="3.09187">
        <ele>75</ele>
        <time>2011-12-04T08:44:40Z</time>
      </trkpt>
      <trkpt lat="43.13326" lon="3.09219">
        <ele>76</ele>
        <time>2011-12-04T08:45:00Z</time>
      </trkpt>
      <trkpt lat="43.13312" lon="3.09189">
        <ele>74</ele>
        <time>2011-12-04T08:45:37Z</time>
      </trkpt>
      <trkpt lat="43.13308" lon="3.09159">
        <ele>69</ele>
        <time>2011-12-04T08:45:53Z</time>
      </trkpt>
      <trkpt lat="43.13303" lon="3.09179">
        <ele>66</ele>
        <time>2011-12-04T08:47:23Z</time>
      </trkpt>
      <trkpt lat="43.13287" lon="3.09262">
        <ele>67</ele>
        <time>2011-12-04T08:47:41Z</time>
      </trkpt>
      <trkpt lat="43.13287" lon="3.09331">
        <ele>69</ele>
        <time>2011-12-04T08:48:02Z</time>
      </trkpt>
      <trkpt lat="43.13292" lon="3.0938">
        <ele>72</ele>
        <time>2011-12-04T08:48:20Z</time>
      </trkpt>
      <trkpt lat="43.1328" lon="3.09422">
        <ele>77</ele>
        <time>2011-12-04T08:48:40Z</time>
      </trkpt>
      <trkpt lat="43.13273" lon="3.0947">
        <ele>82</ele>
        <time>2011-12-04T08:49:03Z</time>
      </trkpt>
      <trkpt lat="43.13262" lon="3.09513">
        <ele>88</ele>
        <time>2011-12-04T08:49:25Z</time>
      </trkpt>
      <trkpt lat="43.1325" lon="3.09547">
        <ele>96</ele>
        <time>2011-12-04T08:49:50Z</time>
      </trkpt>
      <trkpt lat="43.13227" lon="3.09583">
        <ele>98</ele>
        <time>2011-12-04T08:50:11Z</time>
      </trkpt>
      <trkpt lat="43.13202" lon="3.0962">
        <ele>98</ele>
        <time>2011-12-04T08:50:46Z</time>
      </trkpt>
      <trkpt lat="43.13166" lon="3.09616">
        <ele>96</ele>
        <time>2011-12-04T08:50:59Z</time>
      </trkpt>
      <trkpt lat="43.13172" lon="3.09636">
        <ele>95</ele>
        <time>2011-12-04T08:52:35Z</time>
      </trkpt>
      <trkpt lat="43.13189" lon="3.09682">
        <ele>96</ele>
        <time>2011-12-04T08:52:55Z</time>
      </trkpt>
      <trkpt lat="43.13209" lon="3.09725">
        <ele>96</ele>
        <time>2011-12-04T08:53:11Z</time>
      </trkpt>
      <trkpt lat="43.13215" lon="3.0976">
        <ele>94</ele>
        <time>2011-12-04T08:53:25Z</time>
      </trkpt>
      <trkpt lat="43.13239" lon="3.098">
        <ele>96</ele>
        <time>2011-12-04T08:53:44Z</time>
      </trkpt>
      <trkpt lat="43.13262" lon="3.09829">
        <ele>94</ele>
        <time>2011-12-04T08:53:57Z</time>
      </trkpt>
      <trkpt lat="43.13301" lon="3.09864">
        <ele>94</ele>
        <time>2011-12-04T08:54:16Z</time>
      </trkpt>
      <trkpt lat="43.13329" lon="3.09881">
        <ele>93</ele>
        <time>2011-12-04T08:54:37Z</time>
      </trkpt>
      <trkpt lat="43.13338" lon="3.09911">
        <ele>89</ele>
        <time>2011-12-04T08:55:08Z</time>
      </trkpt>
      <trkpt lat="43.13349" lon="3.0994">
        <ele>77</ele>
        <time>2011-12-04T08:55:24Z</time>
      </trkpt>
      <trkpt lat="43.13371" lon="3.09967">
        <ele>73</ele>
        <time>2011-12-04T08:58:41Z</time>
      </trkpt>
      <trkpt lat="43.13369" lon="3.1004">
        <ele>64</ele>
        <time>2011-12-04T08:58:52Z</time>
      </trkpt>
      <trkpt lat="43.13297" lon="3.1001">
        <ele>62</ele>
        <time>2011-12-04T08:59:14Z</time>
      </trkpt>
      <trkpt lat="43.13244" lon="3.10021">
        <ele>58</ele>
        <time>2011-12-04T08:59:28Z</time>
      </trkpt>
      <trkpt lat="43.13205" lon="3.10032">
        <ele>56</ele>
        <time>2011-12-04T09:00:27Z</time>
      </trkpt>
      <trkpt lat="43.13187" lon="3.10021">
        <ele>50</ele>
        <time>2011-12-04T09:00:38Z</time>
      </trkpt>
      <trkpt lat="43.13182" lon="3.09993">
        <ele>44</ele>
        <time>2011-12-04T09:01:02Z</time>
      </trkpt>
      <trkpt lat="43.13163" lon="3.09986">
        <ele>42</ele>
        <time>2011-12-04T09:01:19Z</time>
      </trkpt>
      <trkpt lat="43.13144" lon="3.09967">
        <ele>41</ele>
        <time>2011-12-04T09:01:30Z</time>
      </trkpt>
      <trkpt lat="43.13131" lon="3.09979">
        <ele>35</ele>
        <time>2011-12-04T09:06:14Z</time>
      </trkpt>
      <trkpt lat="43.13115" lon="3.09988">
        <ele>36</ele>
        <time>2011-12-04T09:07:40Z</time>
      </trkpt>
      <trkpt lat="43.13105" lon="3.10008">
        <ele>37</ele>
        <time>2011-12-04T09:07:54Z</time>
      </trkpt>
      <trkpt lat="43.13125" lon="3.10056">
        <ele>38</ele>
        <time>2011-12-04T09:08:18Z</time>
      </trkpt>
      <trkpt lat="43.13153" lon="3.10139">
        <ele>36</ele>
        <time>2011-12-04T09:08:39Z</time>
      </trkpt>
      <trkpt lat="43.1324" lon="3.10199">
        <ele>39</ele>
        <time>2011-12-04T09:09:11Z</time>
      </trkpt>
      <trkpt lat="43.13244" lon="3.10199">
        <ele>39</ele>
        <time>2011-12-04T09:09:33Z</time>
      </trkpt>
      <trkpt lat="43.13239" lon="3.10227">
        <ele>36</ele>
        <time>2011-12-04T09:10:55Z</time>
      </trkpt>
      <trkpt lat="43.13249" lon="3.10253">
        <ele>35</ele>
        <time>2011-12-04T09:11:10Z</time>
      </trkpt>
      <trkpt lat="43.13258" lon="3.1031">
        <ele>35</ele>
        <time>2011-12-04T09:11:28Z</time>
      </trkpt>
      <trkpt lat="43.13296" lon="3.10363">
        <ele>35</ele>
        <time>2011-12-04T09:11:44Z</time>
      </trkpt>
      <trkpt lat="43.13334" lon="3.10382">
        <ele>41</ele>
        <time>2011-12-04T09:12:05Z</time>
      </trkpt>
      <trkpt lat="43.13345" lon="3.10365">
        <ele>42</ele>
        <time>2011-12-04T09:12:51Z</time>
      </trkpt>
      <trkpt lat="43.13337" lon="3.10371">
        <ele>42</ele>
        <time>2011-12-04T09:14:08Z</time>
      </trkpt>
      <trkpt lat="43.13354" lon="3.10332">
        <ele>38</ele>
        <time>2011-12-04T09:14:43Z</time>
      </trkpt>
      <trkpt lat="43.13349" lon="3.10322">
        <ele>35</ele>
        <time>2011-12-04T09:15:44Z</time>
      </trkpt>
      <trkpt lat="43.1336" lon="3.10309">
        <ele>36</ele>
        <time>2011-12-04T09:15:58Z</time>
      </trkpt>
      <trkpt lat="43.1339" lon="3.10295">
        <ele>37</ele>
        <time>2011-12-04T09:16:17Z</time>
      </trkpt>
      <trkpt lat="43.13422" lon="3.10289">
        <ele>39</ele>
        <time>2011-12-04T09:16:32Z</time>
      </trkpt>
      <trkpt lat="43.13458" lon="3.10291">
        <ele>41</ele>
        <time>2011-12-04T09:16:49Z</time>
      </trkpt>
      <trkpt lat="43.13492" lon="3.10284">
        <ele>43</ele>
        <time>2011-12-04T09:17:04Z</time>
      </trkpt>
      <trkpt lat="43.13529" lon="3.1028">
        <ele>43</ele>
        <time>2011-12-04T09:17:15Z</time>
      </trkpt>
      <trkpt lat="43.13563" lon="3.10263">
        <ele>42</ele>
        <time>2011-12-04T09:17:29Z</time>
      </trkpt>
      <trkpt lat="43.13572" lon="3.10195">
        <ele>45</ele>
        <time>2011-12-04T09:17:51Z</time>
      </trkpt>
      <trkpt lat="43.13574" lon="3.10166">
        <ele>49</ele>
        <time>2011-12-04T09:18:05Z</time>
      </trkpt>
      <trkpt lat="43.13567" lon="3.10113">
        <ele>52</ele>
        <time>2011-12-04T09:18:27Z</time>
      </trkpt>
      <trkpt lat="43.13589" lon="3.10074">
        <ele>52</ele>
        <time>2011-12-04T09:19:12Z</time>
      </trkpt>
      <trkpt lat="43.13606" lon="3.1">
        <ele>52</ele>
        <time>2011-12-04T09:19:27Z</time>
      </trkpt>
      <trkpt lat="43.13575" lon="3.0992">
        <ele>53</ele>
        <time>2011-12-04T09:19:44Z</time>
      </trkpt>
      <trkpt lat="43.13525" lon="3.09811">
        <ele>54</ele>
        <time>2011-12-04T09:20:07Z</time>
      </trkpt>
      <trkpt lat="43.13511" lon="3.09738">
        <ele>56</ele>
        <time>2011-12-04T09:20:23Z</time>
      </trkpt>
      <trkpt lat="43.13538" lon="3.09742">
        <ele>61</ele>
        <time>2011-12-04T09:20:38Z</time>
      </trkpt>
      <trkpt lat="43.13614" lon="3.09865">
        <ele>62</ele>
        <time>2011-12-04T09:21:10Z</time>
      </trkpt>
      <trkpt lat="43.13646" lon="3.09946">
        <ele>61</ele>
        <time>2011-12-04T09:21:29Z</time>
      </trkpt>
      <trkpt lat="43.13697" lon="3.1014">
        <ele>58</ele>
        <time>2011-12-04T09:21:59Z</time>
      </trkpt>
      <trkpt lat="43.13729" lon="3.10183">
        <ele>56</ele>
        <time>2011-12-04T09:22:16Z</time>
      </trkpt>
      <trkpt lat="43.13762" lon="3.10172">
        <ele>58</ele>
        <time>2011-12-04T09:22:31Z</time>
      </trkpt>
      <trkpt lat="43.13798" lon="3.10154">
        <ele>59</ele>
        <time>2011-12-04T09:22:44Z</time>
      </trkpt>
      <trkpt lat="43.13813" lon="3.10171">
        <ele>60</ele>
        <time>2011-12-04T09:22:58Z</time>
      </trkpt>
      <trkpt lat="43.13847" lon="3.10169">
        <ele>62</ele>
        <time>2011-12-04T09:23:13Z</time>
      </trkpt>
      <trkpt lat="43.13893" lon="3.10133">
        <ele>65</ele>
        <time>2011-12-04T09:23:34Z</time>
      </trkpt>
      <trkpt lat="43.1394" lon="3.10133">
        <ele>67</ele>
        <time>2011-12-04T09:23:52Z</time>
      </trkpt>
      <trkpt lat="43.13985" lon="3.10155">
        <ele>69</ele>
        <time>2011-12-04T09:24:09Z</time>
      </trkpt>
      <trkpt lat="43.13958" lon="3.1021">
        <ele>73</ele>
        <time>2011-12-04T09:24:30Z</time>
      </trkpt>
      <trkpt lat="43.13921" lon="3.10312">
        <ele>72</ele>
        <time>2011-12-04T09:24:45Z</time>
      </trkpt>
      <trkpt lat="43.13923" lon="3.10406">
        <ele>65</ele>
        <time>2011-12-04T09:24:58Z</time>
      </trkpt>
      <trkpt lat="43.13907" lon="3.10396">
        <ele>64</ele>
        <time>2011-12-04T09:25:22Z</time>
      </trkpt>
      <trkpt lat="43.13882" lon="3.10403">
        <ele>63</ele>
        <time>2011-12-04T09:25:52Z</time>
      </trkpt>
      <trkpt lat="43.13842" lon="3.10453">
        <ele>64</ele>
        <time>2011-12-04T09:26:08Z</time>
      </trkpt>
      <trkpt lat="43.13836" lon="3.10485">
        <ele>65</ele>
        <time>2011-12-04T09:26:20Z</time>
      </trkpt>
      <trkpt lat="43.13849" lon="3.10565">
        <ele>63</ele>
        <time>2011-12-04T09:26:35Z</time>
      </trkpt>
      <trkpt lat="43.13809" lon="3.10564">
        <ele>63</ele>
        <time>2011-12-04T09:26:50Z</time>
      </trkpt>
      <trkpt lat="43.13757" lon="3.1058">
        <ele>63</ele>
        <time>2011-12-04T09:27:08Z</time>
      </trkpt>
      <trkpt lat="43.13712" lon="3.10597">
        <ele>65</ele>
        <time>2011-12-04T09:27:26Z</time>
      </trkpt>
      <trkpt lat="43.13714" lon="3.10653">
        <ele>66</ele>
        <time>2011-12-04T09:27:43Z</time>
      </trkpt>
      <trkpt lat="43.13715" lon="3.10722">
        <ele>68</ele>
        <time>2011-12-04T09:28:00Z</time>
      </trkpt>
      <trkpt lat="43.13682" lon="3.10767">
        <ele>70</ele>
        <time>2011-12-04T09:28:14Z</time>
      </trkpt>
      <trkpt lat="43.13632" lon="3.10739">
        <ele>73</ele>
        <time>2011-12-04T09:28:31Z</time>
      </trkpt>
      <trkpt lat="43.13579" lon="3.10793">
        <ele>77</ele>
        <time>2011-12-04T09:28:56Z</time>
      </trkpt>
      <trkpt lat="43.13537" lon="3.10874">
        <ele>82</ele>
        <time>2011-12-04T09:29:26Z</time>
      </trkpt>
      <trkpt lat="43.13528" lon="3.10914">
        <ele>82</ele>
        <time>2011-12-04T09:30:05Z</time>
      </trkpt>
      <trkpt lat="43.13499" lon="3.10928">
        <ele>74</ele>
        <time>2011-12-04T09:30:17Z</time>
      </trkpt>
      <trkpt lat="43.13449" lon="3.10943">
        <ele>57</ele>
        <time>2011-12-04T09:30:32Z</time>
      </trkpt>
      <trkpt lat="43.13429" lon="3.10963">
        <ele>59</ele>
        <time>2011-12-04T09:30:44Z</time>
      </trkpt>
      <trkpt lat="43.13412" lon="3.10905">
        <ele>54</ele>
        <time>2011-12-04T09:31:14Z</time>
      </trkpt>
      <trkpt lat="43.13379" lon="3.10888">
        <ele>52</ele>
        <time>2011-12-04T09:31:26Z</time>
      </trkpt>
      <trkpt lat="43.1336" lon="3.10857">
        <ele>51</ele>
        <time>2011-12-04T09:31:38Z</time>
      </trkpt>
      <trkpt lat="43.13314" lon="3.10823">
        <ele>51</ele>
        <time>2011-12-04T09:31:48Z</time>
      </trkpt>
      <trkpt lat="43.13282" lon="3.10806">
        <ele>50</ele>
        <time>2011-12-04T09:32:54Z</time>
      </trkpt>
      <trkpt lat="43.13227" lon="3.10755">
        <ele>47</ele>
        <time>2011-12-04T09:33:07Z</time>
      </trkpt>
      <trkpt lat="43.13212" lon="3.10695">
        <ele>46</ele>
        <time>2011-12-04T09:33:22Z</time>
      </trkpt>
      <trkpt lat="43.13164" lon="3.10606">
        <ele>42</ele>
        <time>2011-12-04T09:33:34Z</time>
      </trkpt>
      <trkpt lat="43.1313" lon="3.106">
        <ele>41</ele>
        <time>2011-12-04T09:33:49Z</time>
      </trkpt>
      <trkpt lat="43.13072" lon="3.10585">
        <ele>42</ele>
        <time>2011-12-04T09:34:20Z</time>
      </trkpt>
      <trkpt lat="43.13045" lon="3.1059">
        <ele>42</ele>
        <time>2011-12-04T09:34:30Z</time>
      </trkpt>
      <trkpt lat="43.13018" lon="3.10599">
        <ele>43</ele>
        <time>2011-12-04T09:34:44Z</time>
      </trkpt>
      <trkpt lat="43.12992" lon="3.10614">
        <ele>46</ele>
        <time>2011-12-04T09:34:58Z</time>
      </trkpt>
      <trkpt lat="43.12945" lon="3.10596">
        <ele>43</ele>
        <time>2011-12-04T09:35:09Z</time>
      </trkpt>
      <trkpt lat="43.12881" lon="3.10578">
        <ele>40</ele>
        <time>2011-12-04T09:35:21Z</time>
      </trkpt>
      <trkpt lat="43.12851" lon="3.10597">
        <ele>44</ele>
        <time>2011-12-04T09:35:32Z</time>
      </trkpt>
      <trkpt lat="43.12827" lon="3.10572">
        <ele>44</ele>
        <time>2011-12-04T09:36:05Z</time>
      </trkpt>
      <trkpt lat="43.12801" lon="3.10506">
        <ele>35</ele>
        <time>2011-12-04T09:36:18Z</time>
      </trkpt>
      <trkpt lat="43.12744" lon="3.10457">
        <ele>28</ele>
        <time>2011-12-04T09:36:31Z</time>
      </trkpt>
      <trkpt lat="43.12741" lon="3.10472">
        <ele>24</ele>
        <time>2011-12-04T09:37:17Z</time>
      </trkpt>
      <trkpt lat="43.12752" lon="3.10522">
        <ele>30</ele>
        <time>2011-12-04T09:37:36Z</time>
      </trkpt>
      <trkpt lat="43.12762" lon="3.10559">
        <ele>33</ele>
        <time>2011-12-04T09:37:56Z</time>
      </trkpt>
      <trkpt lat="43.1276" lon="3.106">
        <ele>38</ele>
        <time>2011-12-04T09:38:15Z</time>
      </trkpt>
      <trkpt lat="43.12763" lon="3.10643">
        <ele>41</ele>
        <time>2011-12-04T09:38:36Z</time>
      </trkpt>
      <trkpt lat="43.12791" lon="3.10679">
        <ele>44</ele>
        <time>2011-12-04T09:38:56Z</time>
      </trkpt>
      <trkpt lat="43.12828" lon="3.10682">
        <ele>46</ele>
        <time>2011-12-04T09:39:13Z</time>
      </trkpt>
      <trkpt lat="43.12845" lon="3.1069">
        <ele>46</ele>
        <time>2011-12-04T09:39:45Z</time>
      </trkpt>
      <trkpt lat="43.12892" lon="3.10699">
        <ele>49</ele>
        <time>2011-12-04T09:40:05Z</time>
      </trkpt>
      <trkpt lat="43.12938" lon="3.10715">
        <ele>53</ele>
        <time>2011-12-04T09:40:29Z</time>
      </trkpt>
      <trkpt lat="43.1295" lon="3.1075">
        <ele>57</ele>
        <time>2011-12-04T09:40:50Z</time>
      </trkpt>
      <trkpt lat="43.12925" lon="3.10797">
        <ele>57</ele>
        <time>2011-12-04T09:41:08Z</time>
      </trkpt>
      <trkpt lat="43.12901" lon="3.10789">
        <ele>56</ele>
        <time>2011-12-04T09:41:20Z</time>
      </trkpt>
      <trkpt lat="43.12866" lon="3.10796">
        <ele>51</ele>
        <time>2011-12-04T09:41:32Z</time>
      </trkpt>
      <trkpt lat="43.1282" lon="3.10823">
        <ele>49</ele>
        <time>2011-12-04T09:41:44Z</time>
      </trkpt>
      <trkpt lat="43.12797" lon="3.10877">
        <ele>47</ele>
        <time>2011-12-04T09:41:55Z</time>
      </trkpt>
      <trkpt lat="43.12789" lon="3.10914">
        <ele>51</ele>
        <time>2011-12-04T09:42:14Z</time>
      </trkpt>
      <trkpt lat="43.12782" lon="3.10962">
        <ele>55</ele>
        <time>2011-12-04T09:42:41Z</time>
      </trkpt>
      <trkpt lat="43.12778" lon="3.10978">
        <ele>56</ele>
        <time>2011-12-04T09:43:04Z</time>
      </trkpt>
      <trkpt lat="43.12765" lon="3.10997">
        <ele>53</ele>
        <time>2011-12-04T09:43:49Z</time>
      </trkpt>
      <trkpt lat="43.12729" lon="3.1097">
        <ele>50</ele>
        <time>2011-12-04T09:44:00Z</time>
      </trkpt>
      <trkpt lat="43.12733" lon="3.10924">
        <ele>46</ele>
        <time>2011-12-04T09:44:11Z</time>
      </trkpt>
      <trkpt lat="43.12692" lon="3.10889">
        <ele>32</ele>
        <time>2011-12-04T09:44:25Z</time>
      </trkpt>
      <trkpt lat="43.12677" lon="3.10845">
        <ele>22</ele>
        <time>2011-12-04T09:44:36Z</time>
      </trkpt>
      <trkpt lat="43.12652" lon="3.10897">
        <ele>20</ele>
        <time>2011-12-04T09:46:23Z</time>
      </trkpt>
      <trkpt lat="43.12675" lon="3.11022">
        <ele>23</ele>
        <time>2011-12-04T09:46:49Z</time>
      </trkpt>
      <trkpt lat="43.1269" lon="3.11087">
        <ele>23</ele>
        <time>2011-12-04T09:47:01Z</time>
      </trkpt>
      <trkpt lat="43.12747" lon="3.11148">
        <ele>21</ele>
        <time>2011-12-04T09:47:18Z</time>
      </trkpt>
      <trkpt lat="43.12852" lon="3.11108">
        <ele>24</ele>
        <time>2011-12-04T09:47:48Z</time>
      </trkpt>
      <trkpt lat="43.12951" lon="3.11095">
        <ele>27</ele>
        <time>2011-12-04T09:48:21Z</time>
      </trkpt>
      <trkpt lat="43.12992" lon="3.11083">
        <ele>29</ele>
        <time>2011-12-04T09:48:39Z</time>
      </trkpt>
      <trkpt lat="43.1298" lon="3.11049">
        <ele>32</ele>
        <time>2011-12-04T09:48:52Z</time>
      </trkpt>
      <trkpt lat="43.12938" lon="3.11028">
        <ele>35</ele>
        <time>2011-12-04T09:49:08Z</time>
      </trkpt>
      <trkpt lat="43.12888" lon="3.10999">
        <ele>38</ele>
        <time>2011-12-04T09:49:26Z</time>
      </trkpt>
      <trkpt lat="43.12866" lon="3.10995">
        <ele>41</ele>
        <time>2011-12-04T09:49:41Z</time>
      </trkpt>
      <trkpt lat="43.12828" lon="3.10985">
        <ele>42</ele>
        <time>2011-12-04T09:50:03Z</time>
      </trkpt>
      <trkpt lat="43.1283" lon="3.1096">
        <ele>48</ele>
        <time>2011-12-04T09:50:21Z</time>
      </trkpt>
      <trkpt lat="43.12827" lon="3.10941">
        <ele>52</ele>
        <time>2011-12-04T09:50:46Z</time>
      </trkpt>
      <trkpt lat="43.1285" lon="3.10925">
        <ele>52</ele>
        <time>2011-12-04T09:51:58Z</time>
      </trkpt>
      <trkpt lat="43.12891" lon="3.10893">
        <ele>54</ele>
        <time>2011-12-04T09:52:17Z</time>
      </trkpt>
      <trkpt lat="43.12931" lon="3.10851">
        <ele>55</ele>
        <time>2011-12-04T09:52:34Z</time>
      </trkpt>
      <trkpt lat="43.12973" lon="3.108">
        <ele>58</ele>
        <time>2011-12-04T09:52:55Z</time>
      </trkpt>
      <trkpt lat="43.13001" lon="3.10764">
        <ele>58</ele>
        <time>2011-12-04T09:53:09Z</time>
      </trkpt>
      <trkpt lat="43.13048" lon="3.10802">
        <ele>60</ele>
        <time>2011-12-04T09:53:30Z</time>
      </trkpt>
      <trkpt lat="43.13087" lon="3.10851">
        <ele>66</ele>
        <time>2011-12-04T09:53:56Z</time>
      </trkpt>
      <trkpt lat="43.13138" lon="3.10893">
        <ele>67</ele>
        <time>2011-12-04T09:54:18Z</time>
      </trkpt>
      <trkpt lat="43.1319" lon="3.10925">
        <ele>68</ele>
        <time>2011-12-04T09:54:35Z</time>
      </trkpt>
      <trkpt lat="43.13254" lon="3.10964">
        <ele>69</ele>
        <time>2011-12-04T09:54:59Z</time>
      </trkpt>
      <trkpt lat="43.13301" lon="3.11009">
        <ele>71</ele>
        <time>2011-12-04T09:55:20Z</time>
      </trkpt>
      <trkpt lat="43.13309" lon="3.11072">
        <ele>72</ele>
        <time>2011-12-04T09:55:41Z</time>
      </trkpt>
      <trkpt lat="43.13278" lon="3.11125">
        <ele>73</ele>
        <time>2011-12-04T09:55:58Z</time>
      </trkpt>
      <trkpt lat="43.13261" lon="3.11148">
        <ele>72</ele>
        <time>2011-12-04T09:56:18Z</time>
      </trkpt>
      <trkpt lat="43.13248" lon="3.11156">
        <ele>71</ele>
        <time>2011-12-04T09:56:33Z</time>
      </trkpt>
      <trkpt lat="43.13227" lon="3.11193">
        <ele>72</ele>
        <time>2011-12-04T09:56:47Z</time>
      </trkpt>
      <trkpt lat="43.13205" lon="3.11221">
        <ele>71</ele>
        <time>2011-12-04T10:02:08Z</time>
      </trkpt>
      <trkpt lat="43.1316" lon="3.11243">
        <ele>60</ele>
        <time>2011-12-04T10:02:22Z</time>
      </trkpt>
      <trkpt lat="43.13153" lon="3.11228">
        <ele>54</ele>
        <time>2011-12-04T10:06:05Z</time>
      </trkpt>
      <trkpt lat="43.1314" lon="3.1126">
        <ele>50</ele>
        <time>2011-12-04T10:07:04Z</time>
      </trkpt>
      <trkpt lat="43.13112" lon="3.11348">
        <ele>42</ele>
        <time>2011-12-04T10:07:23Z</time>
      </trkpt>
      <trkpt lat="43.13097" lon="3.11354">
        <ele>31</ele>
        <time>2011-12-04T10:07:59Z</time>
      </trkpt>
      <trkpt lat="43.13101" lon="3.11371">
        <ele>30</ele>
        <time>2011-12-04T10:13:40Z</time>
      </trkpt>
      <trkpt lat="43.13115" lon="3.11412">
        <ele>30</ele>
        <time>2011-12-04T10:14:00Z</time>
      </trkpt>
      <trkpt lat="43.13142" lon="3.11509">
        <ele>27</ele>
        <time>2011-12-04T10:14:15Z</time>
      </trkpt>
      <trkpt lat="43.13161" lon="3.11552">
        <ele>27</ele>
        <time>2011-12-04T10:14:36Z</time>
      </trkpt>
      <trkpt lat="43.13167" lon="3.11628">
        <ele>25</ele>
        <time>2011-12-04T10:14:48Z</time>
      </trkpt>
      <trkpt lat="43.13166" lon="3.11681">
        <ele>26</ele>
        <time>2011-12-04T10:15:02Z</time>
      </trkpt>
      <trkpt lat="43.1315" lon="3.11765">
        <ele>28</ele>
        <time>2011-12-04T10:15:23Z</time>
      </trkpt>
      <trkpt lat="43.13101" lon="3.11874">
        <ele>23</ele>
        <time>2011-12-04T10:15:37Z</time>
      </trkpt>
      <trkpt lat="43.13115" lon="3.11971">
        <ele>18</ele>
        <time>2011-12-04T10:15:50Z</time>
      </trkpt>
      <trkpt lat="43.1312" lon="3.1204">
        <ele>19</ele>
        <time>2011-12-04T10:16:13Z</time>
      </trkpt>
      <trkpt lat="43.13128" lon="3.1204">
        <ele>20</ele>
        <time>2011-12-04T10:16:25Z</time>
      </trkpt>
      <trkpt lat="43.13135" lon="3.11956">
        <ele>25</ele>
        <time>2011-12-04T10:16:58Z</time>
      </trkpt>
      <trkpt lat="43.13153" lon="3.11968">
        <ele>29</ele>
        <time>2011-12-04T10:17:22Z</time>
      </trkpt>
      <trkpt lat="43.13189" lon="3.12027">
        <ele>31</ele>
        <time>2011-12-04T10:17:46Z</time>
      </trkpt>
      <trkpt lat="43.1318" lon="3.11979">
        <ele>34</ele>
        <time>2011-12-04T10:18:01Z</time>
      </trkpt>
      <trkpt lat="43.13181" lon="3.11866">
        <ele>38</ele>
        <time>2011-12-04T10:18:31Z</time>
      </trkpt>
      <trkpt lat="43.13208" lon="3.11775">
        <ele>41</ele>
        <time>2011-12-04T10:19:01Z</time>
      </trkpt>
      <trkpt lat="43.13234" lon="3.11713">
        <ele>45</ele>
        <time>2011-12-04T10:19:24Z</time>
      </trkpt>
      <trkpt lat="43.1326" lon="3.11619">
        <ele>48</ele>
        <time>2011-12-04T10:19:58Z</time>
      </trkpt>
      <trkpt lat="43.13283" lon="3.1149">
        <ele>53</ele>
        <time>2011-12-04T10:20:33Z</time>
      </trkpt>
      <trkpt lat="43.13325" lon="3.11355">
        <ele>57</ele>
        <time>2011-12-04T10:21:11Z</time>
      </trkpt>
      <trkpt lat="43.13388" lon="3.11271">
        <ele>62</ele>
        <time>2011-12-04T10:21:44Z</time>
      </trkpt>
      <trkpt lat="43.13432" lon="3.11174">
        <ele>67</ele>
        <time>2011-12-04T10:22:17Z</time>
      </trkpt>
      <trkpt lat="43.13468" lon="3.11143">
        <ele>70</ele>
        <time>2011-12-04T10:22:41Z</time>
      </trkpt>
      <trkpt lat="43.13465" lon="3.11179">
        <ele>70</ele>
        <time>2011-12-04T10:24:55Z</time>
      </trkpt>
      <trkpt lat="43.13437" lon="3.11242">
        <ele>66</ele>
        <time>2011-12-04T10:25:08Z</time>
      </trkpt>
      <trkpt lat="43.1344" lon="3.11303">
        <ele>62</ele>
        <time>2011-12-04T10:25:21Z</time>
      </trkpt>
      <trkpt lat="43.13462" lon="3.11302">
        <ele>53</ele>
        <time>2011-12-04T10:25:34Z</time>
      </trkpt>
      <trkpt lat="43.13493" lon="3.11269">
        <ele>52</ele>
        <time>2011-12-04T10:25:56Z</time>
      </trkpt>
      <trkpt lat="43.13486" lon="3.11303">
        <ele>47</ele>
        <time>2011-12-04T10:26:12Z</time>
      </trkpt>
      <trkpt lat="43.13485" lon="3.11386">
        <ele>45</ele>
        <time>2011-12-04T10:26:27Z</time>
      </trkpt>
      <trkpt lat="43.13542" lon="3.1138">
        <ele>37</ele>
        <time>2011-12-04T10:26:40Z</time>
      </trkpt>
      <trkpt lat="43.13546" lon="3.11408">
        <ele>33</ele>
        <time>2011-12-04T10:27:21Z</time>
      </trkpt>
      <trkpt lat="43.13475" lon="3.11487">
        <ele>29</ele>
        <time>2011-12-04T10:27:38Z</time>
      </trkpt>
      <trkpt lat="43.13475" lon="3.1158">
        <ele>28</ele>
        <time>2011-12-04T10:28:00Z</time>
      </trkpt>
      <trkpt lat="43.13487" lon="3.1167">
        <ele>32</ele>
        <time>2011-12-04T10:28:23Z</time>
      </trkpt>
      <trkpt lat="43.13522" lon="3.11738">
        <ele>37</ele>
        <time>2011-12-04T10:28:47Z</time>
      </trkpt>
      <trkpt lat="43.13488" lon="3.11847">
        <ele>37</ele>
        <time>2011-12-04T10:29:10Z</time>
      </trkpt>
      <trkpt lat="43.1344" lon="3.11862">
        <ele>39</ele>
        <time>2011-12-04T10:29:30Z</time>
      </trkpt>
      <trkpt lat="43.13495" lon="3.11861">
        <ele>42</ele>
        <time>2011-12-04T10:29:50Z</time>
      </trkpt>
      <trkpt lat="43.13544" lon="3.11876">
        <ele>46</ele>
        <time>2011-12-04T10:30:09Z</time>
      </trkpt>
      <trkpt lat="43.13571" lon="3.11862">
        <ele>47</ele>
        <time>2011-12-04T10:31:11Z</time>
      </trkpt>
      <trkpt lat="43.13619" lon="3.11781">
        <ele>50</ele>
        <time>2011-12-04T10:31:44Z</time>
      </trkpt>
      <trkpt lat="43.13634" lon="3.11697">
        <ele>56</ele>
        <time>2011-12-04T10:32:11Z</time>
      </trkpt>
      <trkpt lat="43.13676" lon="3.11649">
        <ele>62</ele>
        <time>2011-12-04T10:32:38Z</time>
      </trkpt>
      <trkpt lat="43.13682" lon="3.11617">
        <ele>66</ele>
        <time>2011-12-04T10:32:58Z</time>
      </trkpt>
      <trkpt lat="43.13661" lon="3.11617">
        <ele>65</ele>
        <time>2011-12-04T10:34:36Z</time>
      </trkpt>
      <trkpt lat="43.13591" lon="3.11597">
        <ele>67</ele>
        <time>2011-12-04T10:35:03Z</time>
      </trkpt>
      <trkpt lat="43.13621" lon="3.11547">
        <ele>66</ele>
        <time>2011-12-04T10:36:18Z</time>
      </trkpt>
      <trkpt lat="43.13734" lon="3.11534">
        <ele>68</ele>
        <time>2011-12-04T10:36:47Z</time>
      </trkpt>
      <trkpt lat="43.13811" lon="3.11521">
        <ele>70</ele>
        <time>2011-12-04T10:37:06Z</time>
      </trkpt>
      <trkpt lat="43.13823" lon="3.11395">
        <ele>69</ele>
        <time>2011-12-04T10:37:29Z</time>
      </trkpt>
      <trkpt lat="43.13755" lon="3.11355">
        <ele>67</ele>
        <time>2011-12-04T10:37:46Z</time>
      </trkpt>
      <trkpt lat="43.13733" lon="3.11318">
        <ele>63</ele>
        <time>2011-12-04T10:38:02Z</time>
      </trkpt>
      <trkpt lat="43.13726" lon="3.1127">
        <ele>60</ele>
        <time>2011-12-04T10:38:13Z</time>
      </trkpt>
      <trkpt lat="43.13701" lon="3.11253">
        <ele>55</ele>
        <time>2011-12-04T10:38:30Z</time>
      </trkpt>
      <trkpt lat="43.13707" lon="3.11287">
        <ele>50</ele>
        <time>2011-12-04T10:38:46Z</time>
      </trkpt>
      <trkpt lat="43.13691" lon="3.11281">
        <ele>46</ele>
        <time>2011-12-04T10:39:02Z</time>
      </trkpt>
      <trkpt lat="43.13653" lon="3.11258">
        <ele>38</ele>
        <time>2011-12-04T10:39:15Z</time>
      </trkpt>
      <trkpt lat="43.13609" lon="3.11256">
        <ele>34</ele>
        <time>2011-12-04T10:39:30Z</time>
      </trkpt>
      <trkpt lat="43.13585" lon="3.11276">
        <ele>32</ele>
        <time>2011-12-04T10:39:46Z</time>
      </trkpt>
      <trkpt lat="43.13591" lon="3.11238">
        <ele>33</ele>
        <time>2011-12-04T10:40:00Z</time>
      </trkpt>
      <trkpt lat="43.13637" lon="3.11174">
        <ele>35</ele>
        <time>2011-12-04T10:40:23Z</time>
      </trkpt>
      <trkpt lat="43.13666" lon="3.11139">
        <ele>36</ele>
        <time>2011-12-04T10:40:39Z</time>
      </trkpt>
      <trkpt lat="43.13686" lon="3.11114">
        <ele>40</ele>
        <time>2011-12-04T10:40:55Z</time>
      </trkpt>
      <trkpt lat="43.13708" lon="3.11067">
        <ele>40</ele>
        <time>2011-12-04T10:41:10Z</time>
      </trkpt>
      <trkpt lat="43.13727" lon="3.11017">
        <ele>39</ele>
        <time>2011-12-04T10:41:25Z</time>
      </trkpt>
      <trkpt lat="43.1376" lon="3.10996">
        <ele>37</ele>
        <time>2011-12-04T10:41:42Z</time>
      </trkpt>
      <trkpt lat="43.13778" lon="3.10984">
        <ele>39</ele>
        <time>2011-12-04T10:42:22Z</time>
      </trkpt>
      <trkpt lat="43.13817" lon="3.10969">
        <ele>41</ele>
        <time>2011-12-04T10:42:43Z</time>
      </trkpt>
      <trkpt lat="43.13842" lon="3.10951">
        <ele>44</ele>
        <time>2011-12-04T10:42:58Z</time>
      </trkpt>
      <trkpt lat="43.13868" lon="3.10928">
        <ele>49</ele>
        <time>2011-12-04T10:43:16Z</time>
      </trkpt>
      <trkpt lat="43.13902" lon="3.10921">
        <ele>50</ele>
        <time>2011-12-04T10:43:39Z</time>
      </trkpt>
      <trkpt lat="43.13927" lon="3.10952">
        <ele>48</ele>
        <time>2011-12-04T10:45:04Z</time>
      </trkpt>
      <trkpt lat="43.13932" lon="3.10981">
        <ele>42</ele>
        <time>2011-12-04T10:45:14Z</time>
      </trkpt>
      <trkpt lat="43.13958" lon="3.10999">
        <ele>41</ele>
        <time>2011-12-04T10:45:34Z</time>
      </trkpt>
      <trkpt lat="43.13997" lon="3.11015">
        <ele>44</ele>
        <time>2011-12-04T10:45:56Z</time>
      </trkpt>
      <trkpt lat="43.1403" lon="3.11058">
        <ele>47</ele>
        <time>2011-12-04T10:46:20Z</time>
      </trkpt>
      <trkpt lat="43.14057" lon="3.1111">
        <ele>50</ele>
        <time>2011-12-04T10:46:46Z</time>
      </trkpt>
      <trkpt lat="43.14101" lon="3.11132">
        <ele>53</ele>
        <time>2011-12-04T10:47:11Z</time>
      </trkpt>
      <trkpt lat="43.14127" lon="3.11154">
        <ele>55</ele>
        <time>2011-12-04T10:47:29Z</time>
      </trkpt>
      <trkpt lat="43.14164" lon="3.11218">
        <ele>58</ele>
        <time>2011-12-04T10:47:59Z</time>
      </trkpt>
      <trkpt lat="43.142" lon="3.11298">
        <ele>61</ele>
        <time>2011-12-04T10:48:31Z</time>
      </trkpt>
      <trkpt lat="43.14227" lon="3.1143">
        <ele>63</ele>
        <time>2011-12-04T10:49:06Z</time>
      </trkpt>
      <trkpt lat="43.14217" lon="3.11538">
        <ele>63</ele>
        <time>2011-12-04T10:49:31Z</time>
      </trkpt>
      <trkpt lat="43.14194" lon="3.11648">
        <ele>63</ele>
        <time>2011-12-04T10:49:55Z</time>
      </trkpt>
      <trkpt lat="43.14151" lon="3.11657">
        <ele>63</ele>
        <time>2011-12-04T10:50:45Z</time>
      </trkpt>
      <trkpt lat="43.1411" lon="3.11686">
        <ele>66</ele>
        <time>2011-12-04T10:51:22Z</time>
      </trkpt>
      <trkpt lat="43.14047" lon="3.11777">
        <ele>66</ele>
        <time>2011-12-04T10:51:51Z</time>
      </trkpt>
      <trkpt lat="43.14033" lon="3.11864">
        <ele>63</ele>
        <time>2011-12-04T10:52:07Z</time>
      </trkpt>
      <trkpt lat="43.14022" lon="3.11902">
        <ele>61</ele>
        <time>2011-12-04T10:52:18Z</time>
      </trkpt>
      <trkpt lat="43.1401" lon="3.11973">
        <ele>58</ele>
        <time>2011-12-04T10:52:36Z</time>
      </trkpt>
      <trkpt lat="43.13978" lon="3.12133">
        <ele>54</ele>
        <time>2011-12-04T10:53:05Z</time>
      </trkpt>
      <trkpt lat="43.13957" lon="3.12283">
        <ele>48</ele>
        <time>2011-12-04T10:53:26Z</time>
      </trkpt>
      <trkpt lat="43.14002" lon="3.12355">
        <ele>45</ele>
        <time>2011-12-04T10:53:38Z</time>
      </trkpt>
      <trkpt lat="43.14057" lon="3.12433">
        <ele>46</ele>
        <time>2011-12-04T10:54:03Z</time>
      </trkpt>
      <trkpt lat="43.14008" lon="3.12528">
        <ele>48</ele>
        <time>2011-12-04T10:54:26Z</time>
      </trkpt>
      <trkpt lat="43.13983" lon="3.12567">
        <ele>45</ele>
        <time>2011-12-04T10:54:43Z</time>
      </trkpt>
      <trkpt lat="43.13956" lon="3.12565">
        <ele>40</ele>
        <time>2011-12-04T10:55:00Z</time>
      </trkpt>
      <trkpt lat="43.13918" lon="3.1255">
        <ele>26</ele>
        <time>2011-12-04T10:55:16Z</time>
      </trkpt>
      <trkpt lat="43.1385" lon="3.12625">
        <ele>24</ele>
        <time>2011-12-04T10:55:38Z</time>
      </trkpt>
      <trkpt lat="43.13813" lon="3.12711">
        <ele>24</ele>
        <time>2011-12-04T10:55:56Z</time>
      </trkpt>
      <trkpt lat="43.13755" lon="3.12772">
        <ele>25</ele>
        <time>2011-12-04T10:56:21Z</time>
      </trkpt>
      <trkpt lat="43.13776" lon="3.12834">
        <ele>26</ele>
        <time>2011-12-04T10:56:41Z</time>
      </trkpt>
      <trkpt lat="43.13822" lon="3.12834">
        <ele>29</ele>
        <time>2011-12-04T10:57:04Z</time>
      </trkpt>
      <trkpt lat="43.13855" lon="3.12839">
        <ele>32</ele>
        <time>2011-12-04T10:57:25Z</time>
      </trkpt>
      <trkpt lat="43.13916" lon="3.1287">
        <ele>34</ele>
        <time>2011-12-04T10:58:00Z</time>
      </trkpt>
      <trkpt lat="43.13971" lon="3.12911">
        <ele>37</ele>
        <time>2011-12-04T10:58:35Z</time>
      </trkpt>
      <trkpt lat="43.14018" lon="3.12936">
        <ele>39</ele>
        <time>2011-12-04T10:59:03Z</time>
      </trkpt>
      <trkpt lat="43.14061" lon="3.12939">
        <ele>38</ele>
        <time>2011-12-04T10:59:24Z</time>
      </trkpt>
      <trkpt lat="43.14055" lon="3.12984">
        <ele>39</ele>
        <time>2011-12-04T11:00:06Z</time>
      </trkpt>
      <trkpt lat="43.14058" lon="3.1308">
        <ele>30</ele>
        <time>2011-12-04T11:00:19Z</time>
      </trkpt>
      <trkpt lat="43.14097" lon="3.13125">
        <ele>24</ele>
        <time>2011-12-04T11:00:31Z</time>
      </trkpt>
      <trkpt lat="43.1415" lon="3.13152">
        <ele>17</ele>
        <time>2011-12-04T11:00:43Z</time>
      </trkpt>
      <trkpt lat="43.14161" lon="3.1316">
        <ele>11</ele>
        <time>2011-12-04T11:00:55Z</time>
      </trkpt>
      <trkpt lat="43.14166" lon="3.13171">
        <ele>7</ele>
        <time>2011-12-04T11:01:04Z</time>
      </trkpt>
      <trkpt lat="43.14174" lon="3.13146">
        <ele>8</ele>
        <time>2011-12-04T11:01:24Z</time>
      </trkpt>
      <trkpt lat="43.14207" lon="3.13092">
        <ele>13</ele>
        <time>2011-12-04T11:01:50Z</time>
      </trkpt>
      <trkpt lat="43.14242" lon="3.13022">
        <ele>18</ele>
        <time>2011-12-04T11:02:19Z</time>
      </trkpt>
      <trkpt lat="43.14277" lon="3.12933">
        <ele>21</ele>
        <time>2011-12-04T11:02:49Z</time>
      </trkpt>
      <trkpt lat="43.1428" lon="3.12924">
        <ele>21</ele>
        <time>2011-12-04T11:03:05Z</time>
      </trkpt>
      <trkpt lat="43.14293" lon="3.12885">
        <ele>23</ele>
        <time>2011-12-04T11:03:29Z</time>
      </trkpt>
      <trkpt lat="43.14289" lon="3.12797">
        <ele>28</ele>
        <time>2011-12-04T11:03:59Z</time>
      </trkpt>
      <trkpt lat="43.14292" lon="3.12675">
        <ele>32</ele>
        <time>2011-12-04T11:04:31Z</time>
      </trkpt>
      <trkpt lat="43.14294" lon="3.12587">
        <ele>34</ele>
        <time>2011-12-04T11:04:57Z</time>
      </trkpt>
      <trkpt lat="43.14326" lon="3.12599">
        <ele>38</ele>
        <time>2011-12-04T11:05:23Z</time>
      </trkpt>
      <trkpt lat="43.14344" lon="3.12621">
        <ele>41</ele>
        <time>2011-12-04T11:05:42Z</time>
      </trkpt>
      <trkpt lat="43.14365" lon="3.12654">
        <ele>47</ele>
        <time>2011-12-04T11:06:08Z</time>
      </trkpt>
      <trkpt lat="43.14378" lon="3.12661">
        <ele>47</ele>
        <time>2011-12-04T11:07:03Z</time>
      </trkpt>
      <trkpt lat="43.14384" lon="3.12683">
        <ele>46</ele>
        <time>2011-12-04T11:07:23Z</time>
      </trkpt>
      <trkpt lat="43.14425" lon="3.12772">
        <ele>44</ele>
        <time>2011-12-04T11:07:49Z</time>
      </trkpt>
      <trkpt lat="43.14427" lon="3.12772">
        <ele>42</ele>
        <time>2011-12-04T11:33:04Z</time>
      </trkpt>
      <trkpt lat="43.14432" lon="3.12787">
        <ele>41</ele>
        <time>2011-12-04T11:33:42Z</time>
      </trkpt>
      <trkpt lat="43.14435" lon="3.12809">
        <ele>41</ele>
        <time>2011-12-04T11:34:28Z</time>
      </trkpt>
      <trkpt lat="43.14484" lon="3.12913">
        <ele>37</ele>
        <time>2011-12-04T11:34:47Z</time>
      </trkpt>
      <trkpt lat="43.14522" lon="3.13003">
        <ele>38</ele>
        <time>2011-12-04T11:35:09Z</time>
      </trkpt>
      <trkpt lat="43.1457" lon="3.13118">
        <ele>32</ele>
        <time>2011-12-04T11:35:26Z</time>
      </trkpt>
      <trkpt lat="43.14617" lon="3.13146">
        <ele>21</ele>
        <time>2011-12-04T11:35:37Z</time>
      </trkpt>
      <trkpt lat="43.14664" lon="3.13136">
        <ele>11</ele>
        <time>2011-12-04T11:35:47Z</time>
      </trkpt>
      <trkpt lat="43.1467" lon="3.13096">
        <ele>7</ele>
        <time>2011-12-04T11:36:03Z</time>
      </trkpt>
      <trkpt lat="43.14675" lon="3.13071">
        <ele>8</ele>
        <time>2011-12-04T11:36:33Z</time>
      </trkpt>
      <trkpt lat="43.14681" lon="3.12978">
        <ele>12</ele>
        <time>2011-12-04T11:37:05Z</time>
      </trkpt>
      <trkpt lat="43.1471" lon="3.12891">
        <ele>17</ele>
        <time>2011-12-04T11:37:33Z</time>
      </trkpt>
      <trkpt lat="43.14663" lon="3.1283">
        <ele>20</ele>
        <time>2011-12-04T11:38:02Z</time>
      </trkpt>
      <trkpt lat="43.14613" lon="3.12748">
        <ele>21</ele>
        <time>2011-12-04T11:38:27Z</time>
      </trkpt>
      <trkpt lat="43.14565" lon="3.12668">
        <ele>21</ele>
        <time>2011-12-04T11:38:52Z</time>
      </trkpt>
      <trkpt lat="43.14578" lon="3.12568">
        <ele>22</ele>
        <time>2011-12-04T11:39:15Z</time>
      </trkpt>
      <trkpt lat="43.14573" lon="3.12449">
        <ele>27</ele>
        <time>2011-12-04T11:39:45Z</time>
      </trkpt>
      <trkpt lat="43.14577" lon="3.12337">
        <ele>29</ele>
        <time>2011-12-04T11:40:10Z</time>
      </trkpt>
      <trkpt lat="43.14543" lon="3.1219">
        <ele>29</ele>
        <time>2011-12-04T11:40:36Z</time>
      </trkpt>
      <trkpt lat="43.14514" lon="3.12103">
        <ele>29</ele>
        <time>2011-12-04T11:41:00Z</time>
      </trkpt>
      <trkpt lat="43.14475" lon="3.12017">
        <ele>32</ele>
        <time>2011-12-04T11:41:28Z</time>
      </trkpt>
      <trkpt lat="43.14465" lon="3.11989">
        <ele>35</ele>
        <time>2011-12-04T11:41:55Z</time>
      </trkpt>
      <trkpt lat="43.14472" lon="3.11928">
        <ele>40</ele>
        <time>2011-12-04T11:42:23Z</time>
      </trkpt>
      <trkpt lat="43.14519" lon="3.1191">
        <ele>41</ele>
        <time>2011-12-04T11:42:44Z</time>
      </trkpt>
      <trkpt lat="43.14539" lon="3.11959">
        <ele>40</ele>
        <time>2011-12-04T11:42:59Z</time>
      </trkpt>
      <trkpt lat="43.14564" lon="3.11971">
        <ele>42</ele>
        <time>2011-12-04T11:43:22Z</time>
      </trkpt>
      <trkpt lat="43.14595" lon="3.12025">
        <ele>48</ele>
        <time>2011-12-04T11:43:55Z</time>
      </trkpt>
      <trkpt lat="43.14637" lon="3.12045">
        <ele>53</ele>
        <time>2011-12-04T11:44:25Z</time>
      </trkpt>
      <trkpt lat="43.14689" lon="3.1204">
        <ele>58</ele>
        <time>2011-12-04T11:45:02Z</time>
      </trkpt>
      <trkpt lat="43.14722" lon="3.12028">
        <ele>61</ele>
        <time>2011-12-04T11:45:29Z</time>
      </trkpt>
      <trkpt lat="43.14752" lon="3.11994">
        <ele>64</ele>
        <time>2011-12-04T11:45:56Z</time>
      </trkpt>
      <trkpt lat="43.14799" lon="3.11981">
        <ele>65</ele>
        <time>2011-12-04T11:46:21Z</time>
      </trkpt>
      <trkpt lat="43.14856" lon="3.11975">
        <ele>67</ele>
        <time>2011-12-04T11:46:49Z</time>
      </trkpt>
      <trkpt lat="43.14889" lon="3.12034">
        <ele>70</ele>
        <time>2011-12-04T11:47:11Z</time>
      </trkpt>
      <trkpt lat="43.14945" lon="3.12035">
        <ele>71</ele>
        <time>2011-12-04T11:47:32Z</time>
      </trkpt>
      <trkpt lat="43.14978" lon="3.12007">
        <ele>70</ele>
        <time>2011-12-04T11:47:47Z</time>
      </trkpt>
      <trkpt lat="43.14999" lon="3.11973">
        <ele>71</ele>
        <time>2011-12-04T11:48:10Z</time>
      </trkpt>
      <trkpt lat="43.14997" lon="3.11938">
        <ele>71</ele>
        <time>2011-12-04T11:48:35Z</time>
      </trkpt>
      <trkpt lat="43.15003" lon="3.119">
        <ele>72</ele>
        <time>2011-12-04T11:48:52Z</time>
      </trkpt>
      <trkpt lat="43.15001" lon="3.11834">
        <ele>72</ele>
        <time>2011-12-04T11:49:10Z</time>
      </trkpt>
      <trkpt lat="43.14989" lon="3.11794">
        <ele>72</ele>
        <time>2011-12-04T11:49:20Z</time>
      </trkpt>
      <trkpt lat="43.14995" lon="3.11744">
        <ele>74</ele>
        <time>2011-12-04T11:49:38Z</time>
      </trkpt>
      <trkpt lat="43.14984" lon="3.11717">
        <ele>79</ele>
        <time>2011-12-04T11:49:56Z</time>
      </trkpt>
      <trkpt lat="43.14939" lon="3.1174">
        <ele>75</ele>
        <time>2011-12-04T11:50:09Z</time>
      </trkpt>
      <trkpt lat="43.14885" lon="3.11764">
        <ele>68</ele>
        <time>2011-12-04T11:50:21Z</time>
      </trkpt>
      <trkpt lat="43.14843" lon="3.11764">
        <ele>63</ele>
        <time>2011-12-04T11:50:34Z</time>
      </trkpt>
      <trkpt lat="43.14816" lon="3.11738">
        <ele>65</ele>
        <time>2011-12-04T11:50:51Z</time>
      </trkpt>
      <trkpt lat="43.14822" lon="3.11731">
        <ele>66</ele>
        <time>2011-12-04T11:51:39Z</time>
      </trkpt>
      <trkpt lat="43.14804" lon="3.11742">
        <ele>66</ele>
        <time>2011-12-04T11:53:27Z</time>
      </trkpt>
      <trkpt lat="43.14723" lon="3.11729">
        <ele>61</ele>
        <time>2011-12-04T11:53:42Z</time>
      </trkpt>
      <trkpt lat="43.14706" lon="3.1172">
        <ele>58</ele>
        <time>2011-12-04T11:58:53Z</time>
      </trkpt>
      <trkpt lat="43.14662" lon="3.1175">
        <ele>57</ele>
        <time>2011-12-04T11:59:22Z</time>
      </trkpt>
      <trkpt lat="43.14623" lon="3.11763">
        <ele>54</ele>
        <time>2011-12-04T11:59:37Z</time>
      </trkpt>
      <trkpt lat="43.14576" lon="3.11803">
        <ele>51</ele>
        <time>2011-12-04T11:59:50Z</time>
      </trkpt>
      <trkpt lat="43.14569" lon="3.11795">
        <ele>50</ele>
        <time>2011-12-04T12:00:12Z</time>
      </trkpt>
      <trkpt lat="43.14542" lon="3.11768">
        <ele>51</ele>
        <time>2011-12-04T12:00:42Z</time>
      </trkpt>
      <trkpt lat="43.14511" lon="3.11712">
        <ele>45</ele>
        <time>2011-12-04T12:00:55Z</time>
      </trkpt>
      <trkpt lat="43.14497" lon="3.11729">
        <ele>49</ele>
        <time>2011-12-04T12:01:21Z</time>
      </trkpt>
      <trkpt lat="43.14487" lon="3.11717">
        <ele>54</ele>
        <time>2011-12-04T12:01:47Z</time>
      </trkpt>
      <trkpt lat="43.14481" lon="3.11684">
        <ele>55</ele>
        <time>2011-12-04T12:02:12Z</time>
      </trkpt>
      <trkpt lat="43.14474" lon="3.1166">
        <ele>56</ele>
        <time>2011-12-04T12:02:26Z</time>
      </trkpt>
      <trkpt lat="43.14451" lon="3.11643">
        <ele>60</ele>
        <time>2011-12-04T12:02:47Z</time>
      </trkpt>
      <trkpt lat="43.1442" lon="3.11643">
        <ele>61</ele>
        <time>2011-12-04T12:03:04Z</time>
      </trkpt>
      <trkpt lat="43.14397" lon="3.11659">
        <ele>61</ele>
        <time>2011-12-04T12:04:39Z</time>
      </trkpt>
      <trkpt lat="43.14358" lon="3.117">
        <ele>60</ele>
        <time>2011-12-04T12:04:51Z</time>
      </trkpt>
      <trkpt lat="43.14316" lon="3.11682">
        <ele>58</ele>
        <time>2011-12-04T12:05:08Z</time>
      </trkpt>
      <trkpt lat="43.14283" lon="3.11661">
        <ele>59</ele>
        <time>2011-12-04T12:05:27Z</time>
      </trkpt>
      <trkpt lat="43.1426" lon="3.11564">
        <ele>61</ele>
        <time>2011-12-04T12:05:53Z</time>
      </trkpt>
      <trkpt lat="43.14276" lon="3.11482">
        <ele>61</ele>
        <time>2011-12-04T12:06:14Z</time>
      </trkpt>
      <trkpt lat="43.14324" lon="3.1139">
        <ele>63</ele>
        <time>2011-12-04T12:06:43Z</time>
      </trkpt>
      <trkpt lat="43.14375" lon="3.11361">
        <ele>64</ele>
        <time>2011-12-04T12:07:04Z</time>
      </trkpt>
      <trkpt lat="43.14445" lon="3.11324">
        <ele>67</ele>
        <time>2011-12-04T12:07:35Z</time>
      </trkpt>
      <trkpt lat="43.1449" lon="3.1126">
        <ele>70</ele>
        <time>2011-12-04T12:08:04Z</time>
      </trkpt>
      <trkpt lat="43.14543" lon="3.11207">
        <ele>73</ele>
        <time>2011-12-04T12:08:36Z</time>
      </trkpt>
      <trkpt lat="43.14618" lon="3.11134">
        <ele>76</ele>
        <time>2011-12-04T12:09:13Z</time>
      </trkpt>
      <trkpt lat="43.14674" lon="3.11076">
        <ele>80</ele>
        <time>2011-12-04T12:09:42Z</time>
      </trkpt>
      <trkpt lat="43.14715" lon="3.11003">
        <ele>84</ele>
        <time>2011-12-04T12:10:11Z</time>
      </trkpt>
      <trkpt lat="43.14771" lon="3.10987">
        <ele>85</ele>
        <time>2011-12-04T12:10:36Z</time>
      </trkpt>
      <trkpt lat="43.14806" lon="3.11053">
        <ele>88</ele>
        <time>2011-12-04T12:11:03Z</time>
      </trkpt>
      <trkpt lat="43.14865" lon="3.11065">
        <ele>91</ele>
        <time>2011-12-04T12:11:32Z</time>
      </trkpt>
      <trkpt lat="43.14915" lon="3.11094">
        <ele>93</ele>
        <time>2011-12-04T12:11:57Z</time>
      </trkpt>
      <trkpt lat="43.14969" lon="3.11081">
        <ele>98</ele>
        <time>2011-12-04T12:12:28Z</time>
      </trkpt>
      <trkpt lat="43.15028" lon="3.11079">
        <ele>106</ele>
        <time>2011-12-04T12:13:06Z</time>
      </trkpt>
      <trkpt lat="43.15072" lon="3.11102">
        <ele>111</ele>
        <time>2011-12-04T12:13:38Z</time>
      </trkpt>
      <trkpt lat="43.15119" lon="3.11153">
        <ele>113</ele>
        <time>2011-12-04T12:14:09Z</time>
      </trkpt>
      <trkpt lat="43.15173" lon="3.11134">
        <ele>116</ele>
        <time>2011-12-04T12:14:38Z</time>
      </trkpt>
      <trkpt lat="43.15256" lon="3.11118">
        <ele>113</ele>
        <time>2011-12-04T12:15:02Z</time>
      </trkpt>
      <trkpt lat="43.15318" lon="3.11055">
        <ele>110</ele>
        <time>2011-12-04T12:15:18Z</time>
      </trkpt>
      <trkpt lat="43.15334" lon="3.10993">
        <ele>111</ele>
        <time>2011-12-04T12:15:44Z</time>
      </trkpt>
      <trkpt lat="43.1535" lon="3.1093">
        <ele>115</ele>
        <time>2011-12-04T12:16:10Z</time>
      </trkpt>
      <trkpt lat="43.15363" lon="3.10901">
        <ele>118</ele>
        <time>2011-12-04T12:16:27Z</time>
      </trkpt>
      <trkpt lat="43.15393" lon="3.10847">
        <ele>124</ele>
        <time>2011-12-04T12:17:02Z</time>
      </trkpt>
      <trkpt lat="43.15443" lon="3.10838">
        <ele>132</ele>
        <time>2011-12-04T12:17:44Z</time>
      </trkpt>
      <trkpt lat="43.15485" lon="3.10863">
        <ele>137</ele>
        <time>2011-12-04T12:18:19Z</time>
      </trkpt>
      <trkpt lat="43.15526" lon="3.10893">
        <ele>144</ele>
        <time>2011-12-04T12:18:53Z</time>
      </trkpt>
      <trkpt lat="43.15564" lon="3.10916">
        <ele>149</ele>
        <time>2011-12-04T12:19:28Z</time>
      </trkpt>
      <trkpt lat="43.15581" lon="3.10913">
        <ele>152</ele>
        <time>2011-12-04T12:19:48Z</time>
      </trkpt>
      <trkpt lat="43.15589" lon="3.10896">
        <ele>155</ele>
        <time>2011-12-04T12:20:05Z</time>
      </trkpt>
      <trkpt lat="43.15593" lon="3.10875">
        <ele>156</ele>
        <time>2011-12-04T12:20:40Z</time>
      </trkpt>
      <trkpt lat="43.15598" lon="3.10813">
        <ele>160</ele>
        <time>2011-12-04T12:21:12Z</time>
      </trkpt>
      <trkpt lat="43.15584" lon="3.10744">
        <ele>165</ele>
        <time>2011-12-04T12:21:49Z</time>
      </trkpt>
      <trkpt lat="43.15575" lon="3.10711">
        <ele>166</ele>
        <time>2011-12-04T12:22:06Z</time>
      </trkpt>
      <trkpt lat="43.15565" lon="3.10641">
        <ele>171</ele>
        <time>2011-12-04T12:22:39Z</time>
      </trkpt>
      <trkpt lat="43.15568" lon="3.10621">
        <ele>171</ele>
        <time>2011-12-04T12:24:32Z</time>
      </trkpt>
      <trkpt lat="43.15541" lon="3.1061">
        <ele>173</ele>
        <time>2011-12-04T12:24:56Z</time>
      </trkpt>
      <trkpt lat="43.1553" lon="3.10638">
        <ele>178</ele>
        <time>2011-12-04T12:25:13Z</time>
      </trkpt>
      <trkpt lat="43.15526" lon="3.10672">
        <ele>182</ele>
        <time>2011-12-04T12:25:35Z</time>
      </trkpt>
      <trkpt lat="43.15506" lon="3.1071">
        <ele>188</ele>
        <time>2011-12-04T12:26:04Z</time>
      </trkpt>
      <trkpt lat="43.1549" lon="3.10687">
        <ele>194</ele>
        <time>2011-12-04T12:26:24Z</time>
      </trkpt>
      <trkpt lat="43.15477" lon="3.10658">
        <ele>201</ele>
        <time>2011-12-04T12:26:44Z</time>
      </trkpt>
      <trkpt lat="43.15463" lon="3.10617">
        <ele>204</ele>
        <time>2011-12-04T12:27:11Z</time>
      </trkpt>
      <trkpt lat="43.1544" lon="3.10566">
        <ele>205</ele>
        <time>2011-12-04T12:27:35Z</time>
      </trkpt>
      <trkpt lat="43.15415" lon="3.10562">
        <ele>205</ele>
        <time>2011-12-04T12:27:57Z</time>
      </trkpt>
      <trkpt lat="43.15352" lon="3.1055">
        <ele>202</ele>
        <time>2011-12-04T12:28:14Z</time>
      </trkpt>
      <trkpt lat="43.15269" lon="3.10559">
        <ele>200</ele>
        <time>2011-12-04T12:28:33Z</time>
      </trkpt>
      <trkpt lat="43.15207" lon="3.10574">
        <ele>199</ele>
        <time>2011-12-04T12:28:48Z</time>
      </trkpt>
      <trkpt lat="43.15132" lon="3.10638">
        <ele>196</ele>
        <time>2011-12-04T12:29:06Z</time>
      </trkpt>
      <trkpt lat="43.15151" lon="3.10781">
        <ele>194</ele>
        <time>2011-12-04T12:29:29Z</time>
      </trkpt>
      <trkpt lat="43.15143" lon="3.10855">
        <ele>195</ele>
        <time>2011-12-04T12:29:47Z</time>
      </trkpt>
      <trkpt lat="43.15102" lon="3.10795">
        <ele>193</ele>
        <time>2011-12-04T12:30:00Z</time>
      </trkpt>
      <trkpt lat="43.15065" lon="3.10738">
        <ele>191</ele>
        <time>2011-12-04T12:30:15Z</time>
      </trkpt>
      <trkpt lat="43.15075" lon="3.10678">
        <ele>193</ele>
        <time>2011-12-04T12:35:06Z</time>
      </trkpt>
      <trkpt lat="43.15061" lon="3.10583">
        <ele>194</ele>
        <time>2011-12-04T12:35:30Z</time>
      </trkpt>
      <trkpt lat="43.15013" lon="3.10505">
        <ele>192</ele>
        <time>2011-12-04T12:35:48Z</time>
      </trkpt>
      <trkpt lat="43.14932" lon="3.10392">
        <ele>189</ele>
        <time>2011-12-04T12:36:15Z</time>
      </trkpt>
      <trkpt lat="43.1497" lon="3.10361">
        <ele>186</ele>
        <time>2011-12-04T12:36:35Z</time>
      </trkpt>
      <trkpt lat="43.15002" lon="3.10383">
        <ele>189</ele>
        <time>2011-12-04T12:36:54Z</time>
      </trkpt>
      <trkpt lat="43.15131" lon="3.10373">
        <ele>192</ele>
        <time>2011-12-04T12:37:30Z</time>
      </trkpt>
      <trkpt lat="43.15192" lon="3.10343">
        <ele>191</ele>
        <time>2011-12-04T12:37:56Z</time>
      </trkpt>
      <trkpt lat="43.15158" lon="3.10266">
        <ele>191</ele>
        <time>2011-12-04T12:38:16Z</time>
      </trkpt>
      <trkpt lat="43.15061" lon="3.10186">
        <ele>184</ele>
        <time>2011-12-04T12:38:33Z</time>
      </trkpt>
      <trkpt lat="43.15118" lon="3.10151">
        <ele>177</ele>
        <time>2011-12-04T12:38:44Z</time>
      </trkpt>
      <trkpt lat="43.15097" lon="3.10075">
        <ele>174</ele>
        <time>2011-12-04T12:38:57Z</time>
      </trkpt>
      <trkpt lat="43.15041" lon="3.10017">
        <ele>180</ele>
        <time>2011-12-04T12:39:23Z</time>
      </trkpt>
      <trkpt lat="43.14965" lon="3.09923">
        <ele>179</ele>
        <time>2011-12-04T12:39:47Z</time>
      </trkpt>
      <trkpt lat="43.14945" lon="3.09903">
        <ele>174</ele>
        <time>2011-12-04T12:40:03Z</time>
      </trkpt>
      <trkpt lat="43.1492" lon="3.09878">
        <ele>170</ele>
        <time>2011-12-04T12:40:19Z</time>
      </trkpt>
      <trkpt lat="43.14906" lon="3.09844">
        <ele>160</ele>
        <time>2011-12-04T12:40:37Z</time>
      </trkpt>
      <trkpt lat="43.14904" lon="3.09823">
        <ele>152</ele>
        <time>2011-12-04T12:40:45Z</time>
      </trkpt>
      <trkpt lat="43.14894" lon="3.09785">
        <ele>143</ele>
        <time>2011-12-04T12:41:28Z</time>
      </trkpt>
      <trkpt lat="43.14965" lon="3.09772">
        <ele>146</ele>
        <time>2011-12-04T12:41:56Z</time>
      </trkpt>
      <trkpt lat="43.15049" lon="3.09772">
        <ele>152</ele>
        <time>2011-12-04T12:42:30Z</time>
      </trkpt>
      <trkpt lat="43.15082" lon="3.09719">
        <ele>156</ele>
        <time>2011-12-04T12:42:57Z</time>
      </trkpt>
      <trkpt lat="43.15064" lon="3.0967">
        <ele>160</ele>
        <time>2011-12-04T12:43:18Z</time>
      </trkpt>
      <trkpt lat="43.15101" lon="3.09599">
        <ele>163</ele>
        <time>2011-12-04T12:43:43Z</time>
      </trkpt>
      <trkpt lat="43.1513" lon="3.09517">
        <ele>163</ele>
        <time>2011-12-04T12:43:56Z</time>
      </trkpt>
      <trkpt lat="43.15199" lon="3.09361">
        <ele>160</ele>
        <time>2011-12-04T12:44:22Z</time>
      </trkpt>
      <trkpt lat="43.15244" lon="3.09254">
        <ele>159</ele>
        <time>2011-12-04T12:44:40Z</time>
      </trkpt>
      <trkpt lat="43.15268" lon="3.09111">
        <ele>156</ele>
        <time>2011-12-04T12:45:02Z</time>
      </trkpt>
      <trkpt lat="43.1526" lon="3.09031">
        <ele>150</ele>
        <time>2011-12-04T12:45:13Z</time>
      </trkpt>
      <trkpt lat="43.15304" lon="3.08885">
        <ele>145</ele>
        <time>2011-12-04T12:45:34Z</time>
      </trkpt>
      <trkpt lat="43.15314" lon="3.08815">
        <ele>142</ele>
        <time>2011-12-04T12:45:57Z</time>
      </trkpt>
      <trkpt lat="43.15331" lon="3.08714">
        <ele>140</ele>
        <time>2011-12-04T12:46:17Z</time>
      </trkpt>
      <trkpt lat="43.15354" lon="3.08637">
        <ele>138</ele>
        <time>2011-12-04T12:46:32Z</time>
      </trkpt>
      <trkpt lat="43.15373" lon="3.08596">
        <ele>137</ele>
        <time>2011-12-04T12:46:45Z</time>
      </trkpt>
      <trkpt lat="43.15383" lon="3.08551">
        <ele>139</ele>
        <time>2011-12-04T12:47:42Z</time>
      </trkpt>
      <trkpt lat="43.15396" lon="3.08447">
        <ele>142</ele>
        <time>2011-12-04T12:48:15Z</time>
      </trkpt>
      <trkpt lat="43.15412" lon="3.08383">
        <ele>143</ele>
        <time>2011-12-04T12:48:40Z</time>
      </trkpt>
      <trkpt lat="43.15415" lon="3.08249">
        <ele>145</ele>
        <time>2011-12-04T12:49:13Z</time>
      </trkpt>
      <trkpt lat="43.15416" lon="3.0816">
        <ele>144</ele>
        <time>2011-12-04T12:49:38Z</time>
      </trkpt>
      <trkpt lat="43.15425" lon="3.08025">
        <ele>143</ele>
        <time>2011-12-04T12:50:03Z</time>
      </trkpt>
      <trkpt lat="43.15426" lon="3.07873">
        <ele>141</ele>
        <time>2011-12-04T12:50:32Z</time>
      </trkpt>
      <trkpt lat="43.15415" lon="3.07711">
        <ele>142</ele>
        <time>2011-12-04T12:51:03Z</time>
      </trkpt>
      <trkpt lat="43.15396" lon="3.0758">
        <ele>145</ele>
        <time>2011-12-04T12:51:35Z</time>
      </trkpt>
      <trkpt lat="43.15399" lon="3.07457">
        <ele>147</ele>
        <time>2011-12-04T12:52:08Z</time>
      </trkpt>
      <trkpt lat="43.15404" lon="3.07285">
        <ele>145</ele>
        <time>2011-12-04T12:52:41Z</time>
      </trkpt>
      <trkpt lat="43.15388" lon="3.0717">
        <ele>143</ele>
        <time>2011-12-04T12:53:01Z</time>
      </trkpt>
      <trkpt lat="43.15414" lon="3.07089">
        <ele>142</ele>
        <time>2011-12-04T12:53:20Z</time>
      </trkpt>
      <trkpt lat="43.15431" lon="3.07016">
        <ele>145</ele>
        <time>2011-12-04T12:53:44Z</time>
      </trkpt>
      <trkpt lat="43.15429" lon="3.06926">
        <ele>147</ele>
        <time>2011-12-04T12:54:10Z</time>
      </trkpt>
      <trkpt lat="43.15392" lon="3.06829">
        <ele>149</ele>
        <time>2011-12-04T12:54:42Z</time>
      </trkpt>
      <trkpt lat="43.15377" lon="3.06722">
        <ele>152</ele>
        <time>2011-12-04T12:55:15Z</time>
      </trkpt>
      <trkpt lat="43.15383" lon="3.06684">
        <ele>152</ele>
        <time>2011-12-04T12:55:31Z</time>
      </trkpt>
      <trkpt lat="43.1539" lon="3.06647">
        <ele>153</ele>
        <time>2011-12-04T12:55:51Z</time>
      </trkpt>
      <trkpt lat="43.15409" lon="3.06621">
        <ele>153</ele>
        <time>2011-12-04T12:57:37Z</time>
      </trkpt>
      <trkpt lat="43.15374" lon="3.06561">
        <ele>150</ele>
        <time>2011-12-04T12:58:00Z</time>
      </trkpt>
      <trkpt lat="43.15332" lon="3.06471">
        <ele>140</ele>
        <time>2011-12-04T12:58:13Z</time>
      </trkpt>
      <trkpt lat="43.15349" lon="3.06383">
        <ele>129</ele>
        <time>2011-12-04T12:58:25Z</time>
      </trkpt>
      <trkpt lat="43.15395" lon="3.06393">
        <ele>125</ele>
        <time>2011-12-04T12:58:42Z</time>
      </trkpt>
      <trkpt lat="43.15435" lon="3.06378">
        <ele>120</ele>
        <time>2011-12-04T12:59:04Z</time>
      </trkpt>
      <trkpt lat="43.155" lon="3.06314">
        <ele>113</ele>
        <time>2011-12-04T12:59:23Z</time>
      </trkpt>
      <trkpt lat="43.15514" lon="3.06348">
        <ele>110</ele>
        <time>2011-12-04T12:59:33Z</time>
      </trkpt>
      <trkpt lat="43.15543" lon="3.06355">
        <ele>110</ele>
        <time>2011-12-04T12:59:44Z</time>
      </trkpt>
      <trkpt lat="43.15583" lon="3.06346">
        <ele>107</ele>
        <time>2011-12-04T12:59:57Z</time>
      </trkpt>
      <trkpt lat="43.15604" lon="3.06303">
        <ele>102</ele>
        <time>2011-12-04T13:00:11Z</time>
      </trkpt>
      <trkpt lat="43.15618" lon="3.06254">
        <ele>92</ele>
        <time>2011-12-04T13:00:26Z</time>
      </trkpt>
      <trkpt lat="43.15638" lon="3.06225">
        <ele>83</ele>
        <time>2011-12-04T13:00:38Z</time>
      </trkpt>
      <trkpt lat="43.15665" lon="3.06209">
        <ele>69</ele>
        <time>2011-12-04T13:00:53Z</time>
      </trkpt>
      <trkpt lat="43.15692" lon="3.06173">
        <ele>65</ele>
        <time>2011-12-04T13:01:07Z</time>
      </trkpt>
      <trkpt lat="43.15721" lon="3.06156">
        <ele>64</ele>
        <time>2011-12-04T13:02:29Z</time>
      </trkpt>
      <trkpt lat="43.15741" lon="3.06193">
        <ele>50</ele>
        <time>2011-12-04T13:02:44Z</time>
      </trkpt>
      <trkpt lat="43.15773" lon="3.06216">
        <ele>37</ele>
        <time>2011-12-04T13:02:58Z</time>
      </trkpt>
      <trkpt lat="43.15786" lon="3.06231">
        <ele>32</ele>
        <time>2011-12-04T13:03:47Z</time>
      </trkpt>
      <trkpt lat="43.15848" lon="3.06158">
        <ele>26</ele>
        <time>2011-12-04T13:04:01Z</time>
      </trkpt>
      <trkpt lat="43.15915" lon="3.06129">
        <ele>23</ele>
        <time>2011-12-04T13:04:16Z</time>
      </trkpt>
      <trkpt lat="43.15994" lon="3.06045">
        <ele>24</ele>
        <time>2011-12-04T13:04:42Z</time>
      </trkpt>
      <trkpt lat="43.1607" lon="3.05947">
        <ele>21</ele>
        <time>2011-12-04T13:05:06Z</time>
      </trkpt>
      <trkpt lat="43.16059" lon="3.05978">
        <ele>22</ele>
        <time>2011-12-04T13:05:26Z</time>
      </trkpt>
      <trkpt lat="43.1603" lon="3.06032">
        <ele>28</ele>
        <time>2011-12-04T13:05:55Z</time>
      </trkpt>
      <trkpt lat="43.16013" lon="3.06102">
        <ele>34</ele>
        <time>2011-12-04T13:06:26Z</time>
      </trkpt>
      <trkpt lat="43.15988" lon="3.06154">
        <ele>39</ele>
        <time>2011-12-04T13:06:56Z</time>
      </trkpt>
      <trkpt lat="43.15958" lon="3.06214">
        <ele>45</ele>
        <time>2011-12-04T13:07:29Z</time>
      </trkpt>
      <trkpt lat="43.15948" lon="3.06302">
        <ele>52</ele>
        <time>2011-12-04T13:08:09Z</time>
      </trkpt>
      <trkpt lat="43.15934" lon="3.06386">
        <ele>58</ele>
        <time>2011-12-04T13:08:46Z</time>
      </trkpt>
      <trkpt lat="43.15939" lon="3.0646">
        <ele>64</ele>
        <time>2011-12-04T13:09:20Z</time>
      </trkpt>
      <trkpt lat="43.15885" lon="3.06488">
        <ele>69</ele>
        <time>2011-12-04T13:09:56Z</time>
      </trkpt>
      <trkpt lat="43.15833" lon="3.0653">
        <ele>75</ele>
        <time>2011-12-04T13:10:29Z</time>
      </trkpt>
      <trkpt lat="43.15772" lon="3.06551">
        <ele>80</ele>
        <time>2011-12-04T13:11:02Z</time>
      </trkpt>
      <trkpt lat="43.1575" lon="3.06589">
        <ele>84</ele>
        <time>2011-12-04T13:11:30Z</time>
      </trkpt>
      <trkpt lat="43.15796" lon="3.06641">
        <ele>92</ele>
        <time>2011-12-04T13:12:01Z</time>
      </trkpt>
      <trkpt lat="43.15789" lon="3.06714">
        <ele>98</ele>
        <time>2011-12-04T13:12:35Z</time>
      </trkpt>
      <trkpt lat="43.15815" lon="3.06745">
        <ele>103</ele>
        <time>2011-12-04T13:12:59Z</time>
      </trkpt>
      <trkpt lat="43.15814" lon="3.06765">
        <ele>105</ele>
        <time>2011-12-04T13:13:17Z</time>
      </trkpt>
      <trkpt lat="43.15772" lon="3.06743">
        <ele>109</ele>
        <time>2011-12-04T13:13:50Z</time>
      </trkpt>
      <trkpt lat="43.15723" lon="3.06743">
        <ele>115</ele>
        <time>2011-12-04T13:14:28Z</time>
      </trkpt>
      <trkpt lat="43.15681" lon="3.06759">
        <ele>121</ele>
        <time>2011-12-04T13:15:00Z</time>
      </trkpt>
      <trkpt lat="43.15644" lon="3.06787">
        <ele>125</ele>
        <time>2011-12-04T13:15:29Z</time>
      </trkpt>
      <trkpt lat="43.15613" lon="3.06873">
        <ele>130</ele>
        <time>2011-12-04T13:16:08Z</time>
      </trkpt>
      <trkpt lat="43.15582" lon="3.06956">
        <ele>136</ele>
        <time>2011-12-04T13:16:48Z</time>
      </trkpt>
      <trkpt lat="43.15538" lon="3.06999">
        <ele>140</ele>
        <time>2011-12-04T13:17:20Z</time>
      </trkpt>
      <trkpt lat="43.15503" lon="3.07067">
        <ele>144</ele>
        <time>2011-12-04T13:17:54Z</time>
      </trkpt>
      <trkpt lat="43.15482" lon="3.07117">
        <ele>145</ele>
        <time>2011-12-04T13:18:20Z</time>
      </trkpt>
      <trkpt lat="43.15473" lon="3.07117">
        <ele>145</ele>
        <time>2011-12-04T13:21:59Z</time>
      </trkpt>
      <trkpt lat="43.15441" lon="3.07186">
        <ele>145</ele>
        <time>2011-12-04T13:22:31Z</time>
      </trkpt>
      <trkpt lat="43.15402" lon="3.07283">
        <ele>145</ele>
        <time>2011-12-04T13:23:04Z</time>
      </trkpt>
      <trkpt lat="43.15398" lon="3.07415">
        <ele>145</ele>
        <time>2011-12-04T13:23:36Z</time>
      </trkpt>
      <trkpt lat="43.15377" lon="3.07504">
        <ele>146</ele>
        <time>2011-12-04T13:23:59Z</time>
      </trkpt>
      <trkpt lat="43.1526" lon="3.07539">
        <ele>143</ele>
        <time>2011-12-04T13:24:23Z</time>
      </trkpt>
      <trkpt lat="43.15152" lon="3.07542">
        <ele>143</ele>
        <time>2011-12-04T13:24:49Z</time>
      </trkpt>
      <trkpt lat="43.15083" lon="3.07638">
        <ele>141</ele>
        <time>2011-12-04T13:25:11Z</time>
      </trkpt>
      <trkpt lat="43.15018" lon="3.0771">
        <ele>145</ele>
        <time>2011-12-04T13:25:41Z</time>
      </trkpt>
      <trkpt lat="43.14992" lon="3.07787">
        <ele>150</ele>
        <time>2011-12-04T13:26:11Z</time>
      </trkpt>
      <trkpt lat="43.14965" lon="3.07836">
        <ele>154</ele>
        <time>2011-12-04T13:26:38Z</time>
      </trkpt>
      <trkpt lat="43.14954" lon="3.07866">
        <ele>158</ele>
        <time>2011-12-04T13:27:02Z</time>
      </trkpt>
      <trkpt lat="43.14947" lon="3.07881">
        <ele>160</ele>
        <time>2011-12-04T13:27:22Z</time>
      </trkpt>
      <trkpt lat="43.14945" lon="3.07895">
        <ele>162</ele>
        <time>2011-12-04T13:27:38Z</time>
      </trkpt>
      <trkpt lat="43.1494" lon="3.07919">
        <ele>166</ele>
        <time>2011-12-04T13:28:00Z</time>
      </trkpt>
      <trkpt lat="43.14933" lon="3.07946">
        <ele>171</ele>
        <time>2011-12-04T13:28:30Z</time>
      </trkpt>
      <trkpt lat="43.14921" lon="3.07963">
        <ele>173</ele>
        <time>2011-12-04T13:28:57Z</time>
      </trkpt>
      <trkpt lat="43.14904" lon="3.07975">
        <ele>178</ele>
        <time>2011-12-04T13:29:27Z</time>
      </trkpt>
      <trkpt lat="43.14891" lon="3.07976">
        <ele>182</ele>
        <time>2011-12-04T13:29:51Z</time>
      </trkpt>
      <trkpt lat="43.14881" lon="3.07985">
        <ele>186</ele>
        <time>2011-12-04T13:30:14Z</time>
      </trkpt>
      <trkpt lat="43.14867" lon="3.08002">
        <ele>191</ele>
        <time>2011-12-04T13:30:43Z</time>
      </trkpt>
      <trkpt lat="43.14859" lon="3.0802">
        <ele>195</ele>
        <time>2011-12-04T13:31:11Z</time>
      </trkpt>
      <trkpt lat="43.14847" lon="3.07993">
        <ele>201</ele>
        <time>2011-12-04T13:31:45Z</time>
      </trkpt>
      <trkpt lat="43.1484" lon="3.0793">
        <ele>201</ele>
        <time>2011-12-04T13:33:33Z</time>
      </trkpt>
      <trkpt lat="43.14819" lon="3.07875">
        <ele>205</ele>
        <time>2011-12-04T13:33:55Z</time>
      </trkpt>
      <trkpt lat="43.1478" lon="3.07844">
        <ele>206</ele>
        <time>2011-12-04T13:34:17Z</time>
      </trkpt>
      <trkpt lat="43.14723" lon="3.07822">
        <ele>205</ele>
        <time>2011-12-04T13:34:43Z</time>
      </trkpt>
      <trkpt lat="43.14649" lon="3.07827">
        <ele>201</ele>
        <time>2011-12-04T13:34:59Z</time>
      </trkpt>
      <trkpt lat="43.14596" lon="3.07815">
        <ele>198</ele>
        <time>2011-12-04T13:35:09Z</time>
      </trkpt>
      <trkpt lat="43.14529" lon="3.07803">
        <ele>200</ele>
        <time>2011-12-04T13:35:29Z</time>
      </trkpt>
      <trkpt lat="43.14463" lon="3.07797">
        <ele>200</ele>
        <time>2011-12-04T13:35:49Z</time>
      </trkpt>
      <trkpt lat="43.14397" lon="3.07754">
        <ele>197</ele>
        <time>2011-12-04T13:36:06Z</time>
      </trkpt>
      <trkpt lat="43.14334" lon="3.07691">
        <ele>187</ele>
        <time>2011-12-04T13:36:21Z</time>
      </trkpt>
      <trkpt lat="43.14281" lon="3.07699">
        <ele>179</ele>
        <time>2011-12-04T13:36:34Z</time>
      </trkpt>
      <trkpt lat="43.14243" lon="3.0771">
        <ele>174</ele>
        <time>2011-12-04T13:36:48Z</time>
      </trkpt>
      <trkpt lat="43.14165" lon="3.07682">
        <ele>173</ele>
        <time>2011-12-04T13:37:05Z</time>
      </trkpt>
      <trkpt lat="43.14095" lon="3.07665">
        <ele>171</ele>
        <time>2011-12-04T13:37:19Z</time>
      </trkpt>
      <trkpt lat="43.13975" lon="3.07699">
        <ele>161</ele>
        <time>2011-12-04T13:37:39Z</time>
      </trkpt>
      <trkpt lat="43.13892" lon="3.0773">
        <ele>157</ele>
        <time>2011-12-04T13:37:51Z</time>
      </trkpt>
      <trkpt lat="43.13844" lon="3.07794">
        <ele>157</ele>
        <time>2011-12-04T13:38:01Z</time>
      </trkpt>
      <trkpt lat="43.13816" lon="3.07872">
        <ele>156</ele>
        <time>2011-12-04T13:38:14Z</time>
      </trkpt>
      <trkpt lat="43.13806" lon="3.07882">
        <ele>157</ele>
        <time>2011-12-04T13:40:22Z</time>
      </trkpt>
      <trkpt lat="43.13749" lon="3.0789">
        <ele>160</ele>
        <time>2011-12-04T13:40:47Z</time>
      </trkpt>
      <trkpt lat="43.13683" lon="3.07879">
        <ele>161</ele>
        <time>2011-12-04T13:41:07Z</time>
      </trkpt>
      <trkpt lat="43.13625" lon="3.0788">
        <ele>161</ele>
        <time>2011-12-04T13:41:21Z</time>
      </trkpt>
      <trkpt lat="43.13568" lon="3.07858">
        <ele>164</ele>
        <time>2011-12-04T13:41:45Z</time>
      </trkpt>
      <trkpt lat="43.13524" lon="3.0784">
        <ele>167</ele>
        <time>2011-12-04T13:42:06Z</time>
      </trkpt>
      <trkpt lat="43.13497" lon="3.07838">
        <ele>168</ele>
        <time>2011-12-04T13:42:21Z</time>
      </trkpt>
      <trkpt lat="43.13448" lon="3.07831">
        <ele>169</ele>
        <time>2011-12-04T13:42:44Z</time>
      </trkpt>
      <trkpt lat="43.13397" lon="3.07864">
        <ele>168</ele>
        <time>2011-12-04T13:43:01Z</time>
      </trkpt>
      <trkpt lat="43.1336" lon="3.07859">
        <ele>166</ele>
        <time>2011-12-04T13:43:14Z</time>
      </trkpt>
      <trkpt lat="43.1332" lon="3.07853">
        <ele>164</ele>
        <time>2011-12-04T13:43:31Z</time>
      </trkpt>
      <trkpt lat="43.13273" lon="3.07848">
        <ele>162</ele>
        <time>2011-12-04T13:43:44Z</time>
      </trkpt>
      <trkpt lat="43.13238" lon="3.07814">
        <ele>161</ele>
        <time>2011-12-04T13:43:57Z</time>
      </trkpt>
      <trkpt lat="43.13225" lon="3.07771">
        <ele>157</ele>
        <time>2011-12-04T13:45:07Z</time>
      </trkpt>
      <trkpt lat="43.13228" lon="3.07758">
        <ele>157</ele>
        <time>2011-12-04T13:45:48Z</time>
      </trkpt>
      <trkpt lat="43.13227" lon="3.07741">
        <ele>151</ele>
        <time>2011-12-04T13:46:55Z</time>
      </trkpt>
      <trkpt lat="43.1322" lon="3.07734">
        <ele>140</ele>
        <time>2011-12-04T13:50:15Z</time>
      </trkpt>
      <trkpt lat="43.13219" lon="3.07716">
        <ele>135</ele>
        <time>2011-12-04T13:50:34Z</time>
      </trkpt>
      <trkpt lat="43.13218" lon="3.07682">
        <ele>121</ele>
        <time>2011-12-04T13:51:03Z</time>
      </trkpt>
      <trkpt lat="43.13226" lon="3.07673">
        <ele>122</ele>
        <time>2011-12-04T13:51:24Z</time>
      </trkpt>
      <trkpt lat="43.13221" lon="3.07629">
        <ele>115</ele>
        <time>2011-12-04T13:51:41Z</time>
      </trkpt>
      <trkpt lat="43.1322" lon="3.07612">
        <ele>109</ele>
        <time>2011-12-04T13:51:53Z</time>
      </trkpt>
      <trkpt lat="43.13194" lon="3.0756">
        <ele>102</ele>
        <time>2011-12-04T13:52:08Z</time>
      </trkpt>
      <trkpt lat="43.13198" lon="3.07541">
        <ele>102</ele>
        <time>2011-12-04T13:53:16Z</time>
      </trkpt>
      <trkpt lat="43.13208" lon="3.07528">
        <ele>107</ele>
        <time>2011-12-04T13:53:43Z</time>
      </trkpt>
      <trkpt lat="43.13184" lon="3.07471">
        <ele>102</ele>
        <time>2011-12-04T13:54:34Z</time>
      </trkpt>
      <trkpt lat="43.13166" lon="3.07405">
        <ele>102</ele>
        <time>2011-12-04T13:54:51Z</time>
      </trkpt>
      <trkpt lat="43.13148" lon="3.07331">
        <ele>102</ele>
        <time>2011-12-04T13:55:07Z</time>
      </trkpt>
      <trkpt lat="43.13148" lon="3.07248">
        <ele>102</ele>
        <time>2011-12-04T13:55:23Z</time>
      </trkpt>
      <trkpt lat="43.13128" lon="3.07172">
        <ele>93</ele>
        <time>2011-12-04T13:55:38Z</time>
      </trkpt>
      <trkpt lat="43.13115" lon="3.07108">
        <ele>87</ele>
        <time>2011-12-04T13:55:51Z</time>
      </trkpt>
      <trkpt lat="43.13072" lon="3.07014">
        <ele>77</ele>
        <time>2011-12-04T13:56:08Z</time>
      </trkpt>
      <trkpt lat="43.13065" lon="3.06962">
        <ele>74</ele>
        <time>2011-12-04T13:56:21Z</time>
      </trkpt>
      <trkpt lat="43.13071" lon="3.06946">
        <ele>74</ele>
        <time>2011-12-04T13:56:54Z</time>
      </trkpt>
      <trkpt lat="43.13048" lon="3.06893">
        <ele>74</ele>
        <time>2011-12-04T13:57:09Z</time>
      </trkpt>
      <trkpt lat="43.13007" lon="3.06866">
        <ele>69</ele>
        <time>2011-12-04T13:57:21Z</time>
      </trkpt>
      <trkpt lat="43.12983" lon="3.06823">
        <ele>65</ele>
        <time>2011-12-04T13:59:05Z</time>
      </trkpt>
      <trkpt lat="43.12963" lon="3.0688">
        <ele>60</ele>
        <time>2011-12-04T13:59:26Z</time>
      </trkpt>
      <trkpt lat="43.13014" lon="3.06942">
        <ele>61</ele>
        <time>2011-12-04T13:59:49Z</time>
      </trkpt>
      <trkpt lat="43.13052" lon="3.07056">
        <ele>66</ele>
        <time>2011-12-04T14:00:22Z</time>
      </trkpt>
      <trkpt lat="43.13045" lon="3.07167">
        <ele>72</ele>
        <time>2011-12-04T14:00:54Z</time>
      </trkpt>
      <trkpt lat="43.13044" lon="3.07275">
        <ele>78</ele>
        <time>2011-12-04T14:01:25Z</time>
      </trkpt>
      <trkpt lat="43.13048" lon="3.07391">
        <ele>80</ele>
        <time>2011-12-04T14:01:51Z</time>
      </trkpt>
      <trkpt lat="43.13028" lon="3.07515">
        <ele>75</ele>
        <time>2011-12-04T14:02:05Z</time>
      </trkpt>
      <trkpt lat="43.12982" lon="3.07637">
        <ele>73</ele>
        <time>2011-12-04T14:02:21Z</time>
      </trkpt>
      <trkpt lat="43.1299" lon="3.07817">
        <ele>78</ele>
        <time>2011-12-04T14:02:48Z</time>
      </trkpt>
      <trkpt lat="43.13032" lon="3.08042">
        <ele>80</ele>
        <time>2011-12-04T14:03:23Z</time>
      </trkpt>
      <trkpt lat="43.13055" lon="3.08163">
        <ele>80</ele>
        <time>2011-12-04T14:03:44Z</time>
      </trkpt>
      <trkpt lat="43.13056" lon="3.08205">
        <ele>83</ele>
        <time>2011-12-04T14:04:20Z</time>
      </trkpt>
      <trkpt lat="43.13053" lon="3.0828">
        <ele>86</ele>
        <time>2011-12-04T14:04:51Z</time>
      </trkpt>
      <trkpt lat="43.13037" lon="3.08342">
        <ele>89</ele>
        <time>2011-12-04T14:05:18Z</time>
      </trkpt>
      <trkpt lat="43.13012" lon="3.08386">
        <ele>92</ele>
        <time>2011-12-04T14:05:43Z</time>
      </trkpt>
      <trkpt lat="43.13004" lon="3.0841">
        <ele>94</ele>
        <time>2011-12-04T14:06:07Z</time>
      </trkpt>
      <trkpt lat="43.13041" lon="3.08458">
        <ele>94</ele>
        <time>2011-12-04T14:07:17Z</time>
      </trkpt>
      <trkpt lat="43.13057" lon="3.0852">
        <ele>94</ele>
        <time>2011-12-04T14:07:33Z</time>
      </trkpt>
      <trkpt lat="43.13064" lon="3.08586">
        <ele>94</ele>
        <time>2011-12-04T14:07:48Z</time>
      </trkpt>
      <trkpt lat="43.13064" lon="3.08666">
        <ele>93</ele>
        <time>2011-12-04T14:08:02Z</time>
      </trkpt>
      <trkpt lat="43.13052" lon="3.08678">
        <ele>93</ele>
        <time>2011-12-04T14:08:29Z</time>
      </trkpt>
      <trkpt lat="43.13026" lon="3.08712">
        <ele>95</ele>
        <time>2011-12-04T14:08:50Z</time>
      </trkpt>
      <trkpt lat="43.12989" lon="3.08701">
        <ele>99</ele>
        <time>2011-12-04T14:09:11Z</time>
      </trkpt>
      <trkpt lat="43.12948" lon="3.08685">
        <ele>106</ele>
        <time>2011-12-04T14:09:43Z</time>
      </trkpt>
      <trkpt lat="43.12921" lon="3.08667">
        <ele>111</ele>
        <time>2011-12-04T14:10:09Z</time>
      </trkpt>
      <trkpt lat="43.12889" lon="3.08655">
        <ele>116</ele>
        <time>2011-12-04T14:10:39Z</time>
      </trkpt>
      <trkpt lat="43.12878" lon="3.08655">
        <ele>117</ele>
        <time>2011-12-04T14:11:08Z</time>
      </trkpt>
      <trkpt lat="43.12835" lon="3.08643">
        <ele>119</ele>
        <time>2011-12-04T14:11:33Z</time>
      </trkpt>
      <trkpt lat="43.12789" lon="3.08629">
        <ele>118</ele>
        <time>2011-12-04T14:11:59Z</time>
      </trkpt>
      <trkpt lat="43.1276" lon="3.08581">
        <ele>120</ele>
        <time>2011-12-04T14:13:20Z</time>
      </trkpt>
      <trkpt lat="43.12749" lon="3.08522">
        <ele>124</ele>
        <time>2011-12-04T14:13:43Z</time>
      </trkpt>
      <trkpt lat="43.12757" lon="3.08452">
        <ele>125</ele>
        <time>2011-12-04T14:14:07Z</time>
      </trkpt>
      <trkpt lat="43.12777" lon="3.08387">
        <ele>119</ele>
        <time>2011-12-04T14:14:23Z</time>
      </trkpt>
      <trkpt lat="43.12784" lon="3.08311">
        <ele>109</ele>
        <time>2011-12-04T14:14:41Z</time>
      </trkpt>
      <trkpt lat="43.12758" lon="3.08228">
        <ele>100</ele>
        <time>2011-12-04T14:14:55Z</time>
      </trkpt>
      <trkpt lat="43.12724" lon="3.08199">
        <ele>90</ele>
        <time>2011-12-04T14:15:06Z</time>
      </trkpt>
      <trkpt lat="43.12718" lon="3.08196">
        <ele>85</ele>
        <time>2011-12-04T14:15:25Z</time>
      </trkpt>
      <trkpt lat="43.12704" lon="3.08187">
        <ele>82</ele>
        <time>2011-12-04T14:15:49Z</time>
      </trkpt>
      <trkpt lat="43.12682" lon="3.08228">
        <ele>72</ele>
        <time>2011-12-04T14:16:05Z</time>
      </trkpt>
      <trkpt lat="43.12639" lon="3.08206">
        <ele>62</ele>
        <time>2011-12-04T14:16:17Z</time>
      </trkpt>
      <trkpt lat="43.12628" lon="3.0815">
        <ele>60</ele>
        <time>2011-12-04T14:17:00Z</time>
      </trkpt>
      <trkpt lat="43.12632" lon="3.08065">
        <ele>57</ele>
        <time>2011-12-04T14:17:13Z</time>
      </trkpt>
      <trkpt lat="43.12611" lon="3.07979">
        <ele>44</ele>
        <time>2011-12-04T14:17:26Z</time>
      </trkpt>
      <trkpt lat="43.12574" lon="3.07895">
        <ele>37</ele>
        <time>2011-12-04T14:17:38Z</time>
      </trkpt>
      <trkpt lat="43.12544" lon="3.07816">
        <ele>32</ele>
        <time>2011-12-04T14:17:52Z</time>
      </trkpt>
      <trkpt lat="43.12519" lon="3.07739">
        <ele>30</ele>
        <time>2011-12-04T14:18:05Z</time>
      </trkpt>
      <trkpt lat="43.12496" lon="3.07656">
        <ele>28</ele>
        <time>2011-12-04T14:18:19Z</time>
      </trkpt>
      <trkpt lat="43.12449" lon="3.07533">
        <ele>22</ele>
        <time>2011-12-04T14:18:49Z</time>
      </trkpt>
      <trkpt lat="43.12429" lon="3.07526">
        <ele>21</ele>
        <time>2011-12-04T14:19:44Z</time>
      </trkpt>
      <trkpt lat="43.12374" lon="3.07566">
        <ele>22</ele>
        <time>2011-12-04T14:20:05Z</time>
      </trkpt>
      <trkpt lat="43.12331" lon="3.07615">
        <ele>24</ele>
        <time>2011-12-04T14:20:21Z</time>
      </trkpt>
      <trkpt lat="43.1231" lon="3.07699">
        <ele>30</ele>
        <time>2011-12-04T14:20:44Z</time>
      </trkpt>
      <trkpt lat="43.12294" lon="3.07773">
        <ele>31</ele>
        <time>2011-12-04T14:21:03Z</time>
      </trkpt>
      <trkpt lat="43.12289" lon="3.07797">
        <ele>31</ele>
        <time>2011-12-04T14:21:17Z</time>
      </trkpt>
      <trkpt lat="43.12238" lon="3.07771">
        <ele>29</ele>
        <time>2011-12-04T14:21:35Z</time>
      </trkpt>
      <trkpt lat="43.12177" lon="3.07745">
        <ele>32</ele>
        <time>2011-12-04T14:21:56Z</time>
      </trkpt>
      <trkpt lat="43.1215" lon="3.07762">
        <ele>33</ele>
        <time>2011-12-04T14:22:14Z</time>
      </trkpt>
      <trkpt lat="43.12135" lon="3.07831">
        <ele>36</ele>
        <time>2011-12-04T14:22:36Z</time>
      </trkpt>
      <trkpt lat="43.12133" lon="3.07899">
        <ele>35</ele>
        <time>2011-12-04T14:22:57Z</time>
      </trkpt>
      <trkpt lat="43.12135" lon="3.07939">
        <ele>32</ele>
        <time>2011-12-04T14:23:11Z</time>
      </trkpt>
      <trkpt lat="43.12126" lon="3.07988">
        <ele>31</ele>
        <time>2011-12-04T14:23:29Z</time>
      </trkpt>
      <trkpt lat="43.12127" lon="3.08025">
        <ele>31</ele>
        <time>2011-12-04T14:24:44Z</time>
      </trkpt>
      <trkpt lat="43.12112" lon="3.08063">
        <ele>29</ele>
        <time>2011-12-04T14:24:55Z</time>
      </trkpt>
      <trkpt lat="43.12102" lon="3.08096">
        <ele>25</ele>
        <time>2011-12-04T14:25:41Z</time>
      </trkpt>
      <trkpt lat="43.121" lon="3.08126">
        <ele>17</ele>
        <time>2011-12-04T14:25:53Z</time>
      </trkpt>
      <trkpt lat="43.12094" lon="3.08152">
        <ele>11</ele>
        <time>2011-12-04T14:26:57Z</time>
      </trkpt>
      <trkpt lat="43.12086" lon="3.08204">
        <ele>9</ele>
        <time>2011-12-04T14:28:36Z</time>
      </trkpt>
      <trkpt lat="43.12067" lon="3.08255">
        <ele>8</ele>
        <time>2011-12-04T14:28:52Z</time>
      </trkpt>
      <trkpt lat="43.12047" lon="3.08289">
        <ele>8</ele>
        <time>2011-12-04T14:29:09Z</time>
      </trkpt>
      <trkpt lat="43.1206" lon="3.08301">
        <ele>11</ele>
        <time>2011-12-04T14:29:26Z</time>
      </trkpt>
      <trkpt lat="43.12083" lon="3.08319">
        <ele>14</ele>
        <time>2011-12-04T14:29:51Z</time>
      </trkpt>
      <trkpt lat="43.12103" lon="3.08324">
        <ele>14</ele>
        <time>2011-12-04T14:31:56Z</time>
      </trkpt>
      <trkpt lat="43.12123" lon="3.08319">
        <ele>16</ele>
        <time>2011-12-04T14:32:11Z</time>
      </trkpt>
      <trkpt lat="43.12153" lon="3.08312">
        <ele>18</ele>
        <time>2011-12-04T14:32:29Z</time>
      </trkpt>
      <trkpt lat="43.12186" lon="3.08317">
        <ele>20</ele>
        <time>2011-12-04T14:32:47Z</time>
      </trkpt>
      <trkpt lat="43.12198" lon="3.08344">
        <ele>18</ele>
        <time>2011-12-04T14:33:20Z</time>
      </trkpt>
      <trkpt lat="43.12212" lon="3.08344">
        <ele>14</ele>
        <time>2011-12-04T14:34:42Z</time>
      </trkpt>
      <trkpt lat="43.12238" lon="3.08296">
        <ele>17</ele>
        <time>2011-12-04T14:35:10Z</time>
      </trkpt>
      <trkpt lat="43.12249" lon="3.08188">
        <ele>20</ele>
        <time>2011-12-04T14:35:41Z</time>
      </trkpt>
      <trkpt lat="43.12251" lon="3.08143">
        <ele>21</ele>
        <time>2011-12-04T14:36:02Z</time>
      </trkpt>
      <trkpt lat="43.12206" lon="3.08163">
        <ele>26</ele>
        <time>2011-12-04T14:36:32Z</time>
      </trkpt>
      <trkpt lat="43.12205" lon="3.08133">
        <ele>30</ele>
        <time>2011-12-04T14:36:55Z</time>
      </trkpt>
      <trkpt lat="43.12211" lon="3.08078">
        <ele>39</ele>
        <time>2011-12-04T14:37:28Z</time>
      </trkpt>
      <trkpt lat="43.12241" lon="3.08053">
        <ele>41</ele>
        <time>2011-12-04T14:37:55Z</time>
      </trkpt>
      <trkpt lat="43.12265" lon="3.08023">
        <ele>41</ele>
        <time>2011-12-04T14:38:36Z</time>
      </trkpt>
      <trkpt lat="43.12283" lon="3.08023">
        <ele>35</ele>
        <time>2011-12-04T14:38:51Z</time>
      </trkpt>
      <trkpt lat="43.12269" lon="3.08082">
        <ele>30</ele>
        <time>2011-12-04T14:39:10Z</time>
      </trkpt>
      <trkpt lat="43.12279" lon="3.08083">
        <ele>25</ele>
        <time>2011-12-04T14:39:25Z</time>
      </trkpt>
      <trkpt lat="43.12304" lon="3.08043">
        <ele>24</ele>
        <time>2011-12-04T14:40:25Z</time>
      </trkpt>
      <trkpt lat="43.12314" lon="3.08012">
        <ele>27</ele>
        <time>2011-12-04T14:40:43Z</time>
      </trkpt>
      <trkpt lat="43.12344" lon="3.07974">
        <ele>29</ele>
        <time>2011-12-04T14:41:05Z</time>
      </trkpt>
      <trkpt lat="43.12391" lon="3.08021">
        <ele>35</ele>
        <time>2011-12-04T14:41:31Z</time>
      </trkpt>
      <trkpt lat="43.12378" lon="3.08038">
        <ele>33</ele>
        <time>2011-12-04T14:41:45Z</time>
      </trkpt>
      <trkpt lat="43.1237" lon="3.08103">
        <ele>29</ele>
        <time>2011-12-04T14:41:58Z</time>
      </trkpt>
      <trkpt lat="43.12401" lon="3.08203">
        <ele>28</ele>
        <time>2011-12-04T14:42:24Z</time>
      </trkpt>
      <trkpt lat="43.12407" lon="3.08234">
        <ele>29</ele>
        <time>2011-12-04T14:42:42Z</time>
      </trkpt>
      <trkpt lat="43.12382" lon="3.082">
        <ele>28</ele>
        <time>2011-12-04T14:43:00Z</time>
      </trkpt>
      <trkpt lat="43.12332" lon="3.08172">
        <ele>28</ele>
        <time>2011-12-04T14:43:16Z</time>
      </trkpt>
      <trkpt lat="43.12312" lon="3.0822">
        <ele>28</ele>
        <time>2011-12-04T14:43:29Z</time>
      </trkpt>
      <trkpt lat="43.12303" lon="3.08278">
        <ele>22</ele>
        <time>2011-12-04T14:43:45Z</time>
      </trkpt>
      <trkpt lat="43.12278" lon="3.08362">
        <ele>16</ele>
        <time>2011-12-04T14:44:02Z</time>
      </trkpt>
      <trkpt lat="43.12292" lon="3.08396">
        <ele>17</ele>
        <time>2011-12-04T14:44:21Z</time>
      </trkpt>
      <trkpt lat="43.12292" lon="3.08456">
        <ele>20</ele>
        <time>2011-12-04T14:44:43Z</time>
      </trkpt>
      <trkpt lat="43.12303" lon="3.08523">
        <ele>25</ele>
        <time>2011-12-04T14:45:07Z</time>
      </trkpt>
      <trkpt lat="43.12302" lon="3.08552">
        <ele>30</ele>
        <time>2011-12-04T14:45:28Z</time>
      </trkpt>
      <trkpt lat="43.12309" lon="3.08595">
        <ele>32</ele>
        <time>2011-12-04T14:45:54Z</time>
      </trkpt>
      <trkpt lat="43.12302" lon="3.08616">
        <ele>36</ele>
        <time>2011-12-04T14:46:23Z</time>
      </trkpt>
      <trkpt lat="43.12307" lon="3.08627">
        <ele>39</ele>
        <time>2011-12-04T14:46:46Z</time>
      </trkpt>
      <trkpt lat="43.12316" lon="3.08657">
        <ele>42</ele>
        <time>2011-12-04T14:47:12Z</time>
      </trkpt>
      <trkpt lat="43.12317" lon="3.08674">
        <ele>47</ele>
        <time>2011-12-04T14:47:34Z</time>
      </trkpt>
      <trkpt lat="43.12313" lon="3.08691">
        <ele>47</ele>
        <time>2011-12-04T14:49:11Z</time>
      </trkpt>
      <trkpt lat="43.12326" lon="3.08774">
        <ele>52</ele>
        <time>2011-12-04T14:49:49Z</time>
      </trkpt>
      <trkpt lat="43.1234" lon="3.08856">
        <ele>56</ele>
        <time>2011-12-04T14:50:20Z</time>
      </trkpt>
      <trkpt lat="43.12332" lon="3.08897">
        <ele>61</ele>
        <time>2011-12-04T14:50:40Z</time>
      </trkpt>
      <trkpt lat="43.12292" lon="3.08886">
        <ele>59</ele>
        <time>2011-12-04T14:51:12Z</time>
      </trkpt>
      <trkpt lat="43.1228" lon="3.08834">
        <ele>60</ele>
        <time>2011-12-04T14:51:27Z</time>
      </trkpt>
      <trkpt lat="43.1226" lon="3.08769">
        <ele>58</ele>
        <time>2011-12-04T14:51:42Z</time>
      </trkpt>
      <trkpt lat="43.12247" lon="3.08703">
        <ele>60</ele>
        <time>2011-12-04T14:51:59Z</time>
      </trkpt>
      <trkpt lat="43.12202" lon="3.08708">
        <ele>60</ele>
        <time>2011-12-04T14:52:15Z</time>
      </trkpt>
      <trkpt lat="43.12162" lon="3.08741">
        <ele>58</ele>
        <time>2011-12-04T14:52:27Z</time>
      </trkpt>
      <trkpt lat="43.12136" lon="3.08776">
        <ele>52</ele>
        <time>2011-12-04T14:52:39Z</time>
      </trkpt>
      <trkpt lat="43.12096" lon="3.08778">
        <ele>49</ele>
        <time>2011-12-04T14:52:52Z</time>
      </trkpt>
      <trkpt lat="43.12056" lon="3.08829">
        <ele>39</ele>
        <time>2011-12-04T14:53:05Z</time>
      </trkpt>
      <trkpt lat="43.12039" lon="3.08837">
        <ele>30</ele>
        <time>2011-12-04T14:53:17Z</time>
      </trkpt>
      <trkpt lat="43.12023" lon="3.08828">
        <ele>30</ele>
        <time>2011-12-04T14:53:36Z</time>
      </trkpt>
      <trkpt lat="43.12014" lon="3.08798">
        <ele>24</ele>
        <time>2011-12-04T14:55:09Z</time>
      </trkpt>
      <trkpt lat="43.12002" lon="3.08739">
        <ele>26</ele>
        <time>2011-12-04T14:55:25Z</time>
      </trkpt>
      <trkpt lat="43.11988" lon="3.08684">
        <ele>21</ele>
        <time>2011-12-04T14:55:35Z</time>
      </trkpt>
      <trkpt lat="43.11983" lon="3.08638">
        <ele>19</ele>
        <time>2011-12-04T14:55:51Z</time>
      </trkpt>
      <trkpt lat="43.11974" lon="3.0859">
        <ele>17</ele>
        <time>2011-12-04T14:56:30Z</time>
      </trkpt>
      <trkpt lat="43.11988" lon="3.08525">
        <ele>11</ele>
        <time>2011-12-04T14:56:47Z</time>
      </trkpt>
      <trkpt lat="43.11996" lon="3.08475">
        <ele>6</ele>
        <time>2011-12-04T14:57:00Z</time>
      </trkpt>
      <trkpt lat="43.11994" lon="3.08428">
        <ele>1</ele>
        <time>2011-12-04T14:57:16Z</time>
      </trkpt>
      <trkpt lat="43.11955" lon="3.08415">
        <ele>2</ele>
        <time>2011-12-04T14:58:39Z</time>
      </trkpt>
      <trkpt lat="43.11855" lon="3.08558">
        <ele>-1</ele>
        <time>2011-12-04T14:59:09Z</time>
      </trkpt>
      <trkpt lat="43.11721" lon="3.08779">
        <ele>-4</ele>
        <time>2011-12-04T14:59:47Z</time>
      </trkpt>
      <trkpt lat="43.1167" lon="3.08769">
        <ele>-5</ele>
        <time>2011-12-04T15:00:02Z</time>
      </trkpt>
      <trkpt lat="43.11643" lon="3.08865">
        <ele>-5</ele>
        <time>2011-12-04T15:00:21Z</time>
      </trkpt>
      <trkpt lat="43.11606" lon="3.08969">
        <ele>-5</ele>
        <time>2011-12-04T15:00:40Z</time>
      </trkpt>
      <trkpt lat="43.11517" lon="3.09114">
        <ele>-5</ele>
        <time>2011-12-04T15:01:09Z</time>
      </trkpt>
      <trkpt lat="43.11432" lon="3.09229">
        <ele>-5</ele>
        <time>2011-12-04T15:01:34Z</time>
      </trkpt>
      <trkpt lat="43.1145" lon="3.09304">
        <ele>-5</ele>
        <time>2011-12-04T15:01:52Z</time>
      </trkpt>
      <trkpt lat="43.11477" lon="3.09366">
        <ele>-5</ele>
        <time>2011-12-04T15:02:12Z</time>
      </trkpt>
      <trkpt lat="43.11465" lon="3.09367">
        <ele>-5</ele>
        <time>2011-12-04T15:02:25Z</time>
      </trkpt>
      <trkpt lat="43.11462" lon="3.09362">
        <ele>-5</ele>
        <time>2011-12-04T15:02:41Z</time>
      </trkpt>
    </trkseg>
  </trk>
</gpx>